AAL34 KDFW-NZAA
Flight info
| Callsign | AAL34 |
|---|---|
| Flight time | N/A |
| Altitude | 28000 |
| Route | WSTEX2 DOSXX DCT FST DCT MEGBE DCT OTEXA DCT IMUSU DCT 26N115W 23N120W 19N125W/N0513F300 14N130W 10N135W 06N140W DCT UPNAR/N0508F320 DCT 01N145W 04S150W 08S155W DCT MEGOG DCT 13S160W 17S165W/N0501F340 21S170W DCT FAROA G457 INTIB/N0487F360 G457 ELPAK |
| Aircraft | B77W/H-SDE1E2E3FGHIJ2J3J4J5M1RWXY/LB1D1 |
Departure
| Time | 2026-04-30 11:16 |
|---|---|
| Airport | Dallas Fort Worth International Airport (KDFW) |
Arrival
| Time | N/A |
|---|---|
| Airport | Auckland International Airport (NZAA) |
| Time | Latitude | Longitude | Altitude | Speed | Heading |
|---|---|---|---|---|---|
| 2026-04-30 10:54 | 32.89898 | -97.04569 | 603 ft | 0 kts | 90° |
| 2026-04-30 11:03 | 32.89898 | -97.04570 | 603 ft | 2 kts | 90° |
| 2026-04-30 11:04 | 32.89904 | -97.04608 | 603 ft | 2 kts | 114° |
| 2026-04-30 11:04 | 32.89912 | -97.04625 | 603 ft | 2 kts | 130° |
| 2026-04-30 11:04 | 32.89920 | -97.04635 | 603 ft | 2 kts | 137° |
| 2026-04-30 11:04 | 32.89934 | -97.04650 | 603 ft | 3 kts | 171° |
| 2026-04-30 11:05 | 32.89937 | -97.04650 | 603 ft | 0 kts | 182° |
| 2026-04-30 11:07 | 32.89931 | -97.04650 | 603 ft | 6 kts | 182° |
| 2026-04-30 11:07 | 32.89865 | -97.04671 | 602 ft | 11 kts | 204° |
| 2026-04-30 11:08 | 32.89795 | -97.04713 | 601 ft | 11 kts | 207° |
| 2026-04-30 11:08 | 32.89726 | -97.04753 | 602 ft | 11 kts | 204° |
| 2026-04-30 11:08 | 32.89650 | -97.04767 | 603 ft | 11 kts | 178° |
| 2026-04-30 11:08 | 32.89573 | -97.04762 | 602 ft | 11 kts | 176° |
| 2026-04-30 11:09 | 32.89496 | -97.04760 | 600 ft | 11 kts | 182° |
| 2026-04-30 11:09 | 32.89418 | -97.04764 | 599 ft | 11 kts | 182° |
| 2026-04-30 11:09 | 32.89340 | -97.04766 | 599 ft | 11 kts | 181° |
| 2026-04-30 11:09 | 32.89263 | -97.04767 | 599 ft | 11 kts | 180° |
| 2026-04-30 11:10 | 32.89185 | -97.04766 | 599 ft | 11 kts | 179° |
| 2026-04-30 11:10 | 32.89107 | -97.04763 | 597 ft | 11 kts | 178° |
| 2026-04-30 11:10 | 32.89030 | -97.04764 | 595 ft | 11 kts | 184° |
| 2026-04-30 11:10 | 32.88951 | -97.04769 | 595 ft | 11 kts | 180° |
| 2026-04-30 11:11 | 32.88873 | -97.04769 | 596 ft | 11 kts | 179° |
| 2026-04-30 11:11 | 32.88794 | -97.04767 | 596 ft | 11 kts | 178° |
| 2026-04-30 11:11 | 32.88716 | -97.04764 | 595 ft | 11 kts | 178° |
| 2026-04-30 11:11 | 32.88637 | -97.04765 | 592 ft | 11 kts | 181° |
| 2026-04-30 11:12 | 32.88557 | -97.04768 | 592 ft | 11 kts | 183° |
| 2026-04-30 11:12 | 32.88483 | -97.04794 | 593 ft | 11 kts | 213° |
| 2026-04-30 11:12 | 32.88405 | -97.04806 | 594 ft | 11 kts | 180° |
| 2026-04-30 11:12 | 32.88326 | -97.04806 | 594 ft | 11 kts | 180° |
| 2026-04-30 11:13 | 32.88246 | -97.04806 | 592 ft | 11 kts | 179° |
| 2026-04-30 11:13 | 32.88166 | -97.04807 | 591 ft | 11 kts | 181° |
| 2026-04-30 11:13 | 32.88086 | -97.04807 | 591 ft | 11 kts | 180° |
| 2026-04-30 11:13 | 32.88007 | -97.04807 | 591 ft | 11 kts | 180° |
| 2026-04-30 11:14 | 32.87927 | -97.04811 | 591 ft | 11 kts | 200° |
| 2026-04-30 11:14 | 32.87906 | -97.04896 | 590 ft | 12 kts | 283° |
| 2026-04-30 11:14 | 32.87911 | -97.04993 | 590 ft | 12 kts | 268° |
| 2026-04-30 11:14 | 32.87913 | -97.05073 | 591 ft | 7 kts | 290° |
| 2026-04-30 11:15 | 32.87952 | -97.05093 | 593 ft | 0 kts | 360° |
| 2026-04-30 11:15 | 32.87997 | -97.05092 | 594 ft | 32 kts | 1° |
| 2026-04-30 11:15 | 32.88499 | -97.05088 | 594 ft | 111 kts | 0° |
| 2026-04-30 11:15 | 32.89531 | -97.05081 | 613 ft | 184 kts | 0° |
| 2026-04-30 11:16 | 32.90990 | -97.05057 | 750 ft | 228 kts | 359° |
| 2026-04-30 11:16 | 32.92634 | -97.05096 | 1514 ft | 238 kts | 358° |
| 2026-04-30 11:16 | 32.94283 | -97.05222 | 2710 ft | 239 kts | 356° |
| 2026-04-30 11:16 | 32.95951 | -97.05672 | 3279 ft | 256 kts | 346° |
| 2026-04-30 11:17 | 32.97688 | -97.06437 | 3516 ft | 273 kts | 345° |
| 2026-04-30 11:17 | 32.99443 | -97.07375 | 3899 ft | 283 kts | 327° |
| 2026-04-30 11:17 | 33.00704 | -97.09190 | 4409 ft | 293 kts | 292° |
| 2026-04-30 11:17 | 33.01016 | -97.11586 | 4962 ft | 296 kts | 266° |
| 2026-04-30 11:18 | 33.00855 | -97.14029 | 5530 ft | 297 kts | 267° |
| 2026-04-30 11:18 | 33.00530 | -97.18933 | 6884 ft | 295 kts | 265° |
| 2026-04-30 11:18 | 33.00282 | -97.21344 | 7600 ft | 291 kts | 264° |
| 2026-04-30 11:19 | 32.99946 | -97.23706 | 8219 ft | 289 kts | 251° |
| 2026-04-30 11:19 | 32.98931 | -97.25747 | 8636 ft | 294 kts | 233° |
| 2026-04-30 11:19 | 32.97633 | -97.27685 | 9161 ft | 296 kts | 235° |
| 2026-04-30 11:19 | 32.96370 | -97.29613 | 9828 ft | 294 kts | 236° |
| 2026-04-30 11:20 | 32.95133 | -97.31510 | 10422 ft | 295 kts | 236° |
| 2026-04-30 11:20 | 32.93841 | -97.33499 | 10553 ft | 313 kts | 236° |
| 2026-04-30 11:20 | 32.92475 | -97.35603 | 10713 ft | 330 kts | 236° |
| 2026-04-30 11:20 | 32.91032 | -97.37825 | 10854 ft | 348 kts | 236° |
| 2026-04-30 11:21 | 32.89529 | -97.40136 | 11238 ft | 357 kts | 236° |
| 2026-04-30 11:21 | 32.87996 | -97.42487 | 11783 ft | 361 kts | 236° |
| 2026-04-30 11:21 | 32.86452 | -97.44855 | 12472 ft | 362 kts | 236° |
| 2026-04-30 11:21 | 32.84910 | -97.47218 | 13219 ft | 361 kts | 236° |
| 2026-04-30 11:22 | 32.83371 | -97.49578 | 13910 ft | 361 kts | 236° |
| 2026-04-30 11:22 | 32.81828 | -97.51945 | 14454 ft | 364 kts | 236° |
| 2026-04-30 11:22 | 32.80266 | -97.54341 | 14982 ft | 368 kts | 236° |
| 2026-04-30 11:22 | 32.78690 | -97.56757 | 15520 ft | 371 kts | 237° |
| 2026-04-30 11:23 | 32.77103 | -97.59188 | 16103 ft | 374 kts | 237° |
| 2026-04-30 11:23 | 32.75504 | -97.61637 | 16634 ft | 377 kts | 237° |
| 2026-04-30 11:23 | 32.72263 | -97.66593 | 17714 ft | 383 kts | 237° |
| 2026-04-30 11:24 | 32.70621 | -97.69101 | 18253 ft | 386 kts | 237° |
| 2026-04-30 11:24 | 32.68991 | -97.71638 | 18720 ft | 383 kts | 241° |
| 2026-04-30 11:24 | 32.67844 | -97.74457 | 19111 ft | 379 kts | 256° |
| 2026-04-30 11:25 | 32.67171 | -97.80603 | 20136 ft | 376 kts | 266° |
| 2026-04-30 11:25 | 32.66955 | -97.83702 | 20645 ft | 377 kts | 265° |
| 2026-04-30 11:25 | 32.66507 | -97.89902 | 21608 ft | 380 kts | 265° |
| 2026-04-30 11:26 | 32.66029 | -97.96157 | 22548 ft | 382 kts | 264° |
| 2026-04-30 11:26 | 32.65783 | -97.99301 | 22998 ft | 383 kts | 264° |
| 2026-04-30 11:26 | 32.65535 | -98.02450 | 23450 ft | 384 kts | 264° |
| 2026-04-30 11:27 | 32.65369 | -98.04544 | 23704 ft | 385 kts | 264° |
| 2026-04-30 11:27 | 32.65031 | -98.08794 | 24125 ft | 387 kts | 264° |
| 2026-04-30 11:27 | 32.64777 | -98.11978 | 24442 ft | 389 kts | 264° |
| 2026-04-30 11:27 | 32.64520 | -98.15186 | 24759 ft | 391 kts | 264° |
| 2026-04-30 11:28 | 32.64002 | -98.21632 | 25405 ft | 394 kts | 264° |
| 2026-04-30 11:28 | 32.63739 | -98.24880 | 25687 ft | 397 kts | 264° |
| 2026-04-30 11:28 | 32.63564 | -98.27041 | 25891 ft | 398 kts | 264° |
| 2026-04-30 11:29 | 32.63299 | -98.30311 | 26215 ft | 399 kts | 264° |
| 2026-04-30 11:29 | 32.63032 | -98.33597 | 26523 ft | 400 kts | 265° |
| 2026-04-30 11:29 | 32.62492 | -98.40197 | 27145 ft | 403 kts | 264° |
| 2026-04-30 11:30 | 32.61946 | -98.46833 | 27684 ft | 407 kts | 265° |
| 2026-04-30 11:30 | 32.61669 | -98.50189 | 27896 ft | 410 kts | 265° |
| 2026-04-30 11:30 | 32.61389 | -98.53570 | 27947 ft | 412 kts | 265° |
| 2026-04-30 11:31 | 32.61107 | -98.56965 | 27996 ft | 415 kts | 265° |
| 2026-04-30 11:31 | 32.60532 | -98.63840 | 28019 ft | 423 kts | 265° |
| 2026-04-30 11:32 | 32.59944 | -98.70835 | 28022 ft | 430 kts | 265° |
| 2026-04-30 11:32 | 32.59343 | -98.77929 | 28029 ft | 434 kts | 265° |
| 2026-04-30 11:33 | 32.58733 | -98.85072 | 28234 ft | 435 kts | 265° |
| 2026-04-30 11:33 | 32.58432 | -98.88578 | 28575 ft | 432 kts | 265° |
| 2026-04-30 11:33 | 32.58128 | -98.92112 | 28944 ft | 429 kts | 265° |
| 2026-04-30 11:33 | 32.57825 | -98.95624 | 29264 ft | 427 kts | 265° |
| 2026-04-30 11:34 | 32.57522 | -98.99119 | 29549 ft | 426 kts | 265° |
| 2026-04-30 11:34 | 32.57220 | -99.02607 | 29811 ft | 425 kts | 265° |
| 2026-04-30 11:34 | 32.56916 | -99.06091 | 29928 ft | 426 kts | 265° |
| 2026-04-30 11:34 | 32.56611 | -99.09585 | 29985 ft | 426 kts | 265° |
| 2026-04-30 11:35 | 32.55998 | -99.16564 | 29999 ft | 425 kts | 265° |
| 2026-04-30 11:35 | 32.55384 | -99.23517 | 30005 ft | 423 kts | 265° |
| 2026-04-30 11:36 | 32.54767 | -99.30454 | 30004 ft | 423 kts | 265° |
| 2026-04-30 11:36 | 32.53702 | -99.37294 | 29964 ft | 424 kts | 256° |
| 2026-04-30 11:37 | 32.51978 | -99.44005 | 30012 ft | 428 kts | 256° |
| 2026-04-30 11:37 | 32.50254 | -99.50782 | 30031 ft | 432 kts | 256° |
| 2026-04-30 11:38 | 32.48564 | -99.57634 | 30045 ft | 435 kts | 256° |
| 2026-04-30 11:38 | 32.46877 | -99.64532 | 30042 ft | 436 kts | 256° |
| 2026-04-30 11:39 | 32.45199 | -99.71382 | 30033 ft | 436 kts | 256° |
| 2026-04-30 11:39 | 32.43509 | -99.78254 | 30008 ft | 434 kts | 256° |
| 2026-04-30 11:40 | 32.41824 | -99.85092 | 29988 ft | 432 kts | 256° |
| 2026-04-30 11:40 | 32.40140 | -99.91908 | 30009 ft | 431 kts | 256° |
| 2026-04-30 11:41 | 32.37966 | -99.98527 | 30021 ft | 435 kts | 245° |
| 2026-04-30 11:41 | 32.35005 | -100.04793 | 30005 ft | 437 kts | 244° |
| 2026-04-30 11:42 | 32.32024 | -100.11072 | 29977 ft | 438 kts | 245° |
| 2026-04-30 11:42 | 32.29082 | -100.17385 | 29973 ft | 439 kts | 245° |
| 2026-04-30 11:43 | 32.26158 | -100.23719 | 29960 ft | 440 kts | 245° |
| 2026-04-30 11:43 | 32.23227 | -100.30080 | 29969 ft | 441 kts | 245° |
| 2026-04-30 11:44 | 32.20283 | -100.36457 | 29967 ft | 443 kts | 245° |
| 2026-04-30 11:44 | 32.17328 | -100.42837 | 29965 ft | 443 kts | 246° |
| 2026-04-30 11:45 | 32.14376 | -100.49205 | 29961 ft | 441 kts | 246° |
| 2026-04-30 11:45 | 32.11435 | -100.55537 | 29960 ft | 439 kts | 246° |
| 2026-04-30 11:46 | 32.08501 | -100.61845 | 29952 ft | 438 kts | 245° |
| 2026-04-30 11:46 | 32.05584 | -100.68102 | 29970 ft | 438 kts | 245° |
| 2026-04-30 11:47 | 32.02645 | -100.74400 | 29969 ft | 439 kts | 245° |
| 2026-04-30 11:47 | 31.99693 | -100.80711 | 29971 ft | 440 kts | 245° |
| 2026-04-30 11:48 | 31.96735 | -100.87026 | 29955 ft | 441 kts | 245° |
| 2026-04-30 11:48 | 31.93768 | -100.93349 | 29957 ft | 441 kts | 245° |
| 2026-04-30 11:49 | 31.90796 | -100.99673 | 29957 ft | 441 kts | 245° |
| 2026-04-30 11:49 | 31.87821 | -101.05992 | 29953 ft | 442 kts | 245° |
| 2026-04-30 11:50 | 31.84842 | -101.12307 | 29948 ft | 441 kts | 245° |
| 2026-04-30 11:50 | 31.81870 | -101.18596 | 29950 ft | 439 kts | 245° |
| 2026-04-30 11:51 | 31.78903 | -101.24865 | 29968 ft | 438 kts | 245° |
| 2026-04-30 11:51 | 31.75937 | -101.31123 | 29940 ft | 438 kts | 245° |
| 2026-04-30 11:52 | 31.72989 | -101.37333 | 29962 ft | 438 kts | 245° |
| 2026-04-30 11:52 | 31.70019 | -101.43577 | 29963 ft | 438 kts | 245° |
| 2026-04-30 11:53 | 31.67040 | -101.49831 | 29938 ft | 439 kts | 245° |
| 2026-04-30 11:53 | 31.64064 | -101.56069 | 29941 ft | 439 kts | 245° |
| 2026-04-30 11:54 | 31.61073 | -101.62326 | 29929 ft | 440 kts | 245° |
| 2026-04-30 11:54 | 31.58073 | -101.68591 | 29938 ft | 440 kts | 245° |
| 2026-04-30 11:55 | 31.55071 | -101.74851 | 29949 ft | 440 kts | 245° |
| 2026-04-30 11:55 | 31.52067 | -101.81105 | 29911 ft | 441 kts | 245° |
| 2026-04-30 11:56 | 31.49056 | -101.87362 | 29933 ft | 441 kts | 245° |
| 2026-04-30 11:56 | 31.46060 | -101.93578 | 29932 ft | 441 kts | 245° |
| 2026-04-30 11:57 | 31.43039 | -101.99838 | 29929 ft | 442 kts | 244° |
| 2026-04-30 11:57 | 31.40008 | -102.06105 | 29916 ft | 442 kts | 244° |
| 2026-04-30 11:58 | 31.36975 | -102.12368 | 29920 ft | 443 kts | 244° |
| 2026-04-30 11:58 | 31.33933 | -102.18638 | 29918 ft | 443 kts | 244° |
| 2026-04-30 11:59 | 31.30884 | -102.24911 | 29911 ft | 444 kts | 244° |
| 2026-04-30 11:59 | 31.27832 | -102.31182 | 29919 ft | 444 kts | 244° |
| 2026-04-30 12:00 | 31.24777 | -102.37447 | 29900 ft | 444 kts | 244° |
| 2026-04-30 12:00 | 31.21719 | -102.43709 | 29900 ft | 443 kts | 244° |
| 2026-04-30 12:01 | 31.18663 | -102.49958 | 29884 ft | 443 kts | 244° |
| 2026-04-30 12:01 | 31.15603 | -102.56204 | 29894 ft | 443 kts | 244° |
| 2026-04-30 12:02 | 31.12537 | -102.62452 | 29904 ft | 444 kts | 244° |
| 2026-04-30 12:02 | 31.09461 | -102.68711 | 29893 ft | 445 kts | 244° |
| 2026-04-30 12:03 | 31.04856 | -102.78062 | 29868 ft | 446 kts | 244° |
| 2026-04-30 12:04 | 31.01756 | -102.84333 | 29886 ft | 447 kts | 244° |
| 2026-04-30 12:04 | 30.98652 | -102.90621 | 29893 ft | 448 kts | 244° |
| 2026-04-30 12:05 | 30.95554 | -102.96933 | 29889 ft | 448 kts | 245° |
| 2026-04-30 12:05 | 30.93024 | -103.03529 | 29976 ft | 446 kts | 250° |
| 2026-04-30 12:06 | 30.90633 | -103.10202 | 29955 ft | 447 kts | 250° |
| 2026-04-30 12:06 | 30.88216 | -103.16861 | 29889 ft | 447 kts | 250° |
| 2026-04-30 12:07 | 30.85790 | -103.23524 | 29901 ft | 447 kts | 250° |
| 2026-04-30 12:07 | 30.83363 | -103.30177 | 29902 ft | 447 kts | 250° |
| 2026-04-30 12:08 | 30.80931 | -103.36835 | 29905 ft | 447 kts | 250° |
| 2026-04-30 12:08 | 30.78493 | -103.43499 | 29914 ft | 448 kts | 250° |
| 2026-04-30 12:09 | 30.76048 | -103.50170 | 29892 ft | 449 kts | 250° |
| 2026-04-30 12:09 | 30.73594 | -103.56849 | 29909 ft | 450 kts | 250° |
| 2026-04-30 12:10 | 30.71151 | -103.63490 | 29919 ft | 450 kts | 250° |
| 2026-04-30 12:10 | 30.68683 | -103.70183 | 29916 ft | 450 kts | 250° |
| 2026-04-30 12:11 | 30.66211 | -103.76875 | 29928 ft | 451 kts | 250° |
| 2026-04-30 12:11 | 30.63735 | -103.83566 | 29944 ft | 451 kts | 249° |
| 2026-04-30 12:12 | 30.61254 | -103.90255 | 29976 ft | 451 kts | 250° |
| 2026-04-30 12:12 | 30.58773 | -103.96932 | 30010 ft | 450 kts | 250° |
| 2026-04-30 12:13 | 30.56289 | -104.03605 | 30033 ft | 450 kts | 250° |
| 2026-04-30 12:13 | 30.55046 | -104.06940 | 29911 ft | 451 kts | 250° |
| 2026-04-30 12:13 | 30.53802 | -104.10278 | 29912 ft | 450 kts | 250° |
| 2026-04-30 12:14 | 30.51312 | -104.16944 | 29914 ft | 450 kts | 249° |
| 2026-04-30 12:14 | 30.48821 | -104.23602 | 29922 ft | 450 kts | 249° |
| 2026-04-30 12:15 | 30.46346 | -104.30197 | 29898 ft | 448 kts | 249° |
| 2026-04-30 12:15 | 30.43860 | -104.36813 | 29850 ft | 447 kts | 249° |
| 2026-04-30 12:16 | 30.41372 | -104.43425 | 29888 ft | 449 kts | 249° |
| 2026-04-30 12:16 | 30.38865 | -104.50076 | 29892 ft | 452 kts | 249° |
| 2026-04-30 12:17 | 30.35070 | -104.60118 | 29873 ft | 455 kts | 249° |
| 2026-04-30 12:17 | 30.32524 | -104.66837 | 29861 ft | 456 kts | 249° |
| 2026-04-30 12:18 | 30.29974 | -104.73560 | 29868 ft | 456 kts | 249° |
| 2026-04-30 12:18 | 30.27356 | -104.80239 | 29846 ft | 455 kts | 248° |
| 2026-04-30 12:19 | 30.24620 | -104.86826 | 29864 ft | 454 kts | 247° |
| 2026-04-30 12:19 | 30.22335 | -104.92289 | 29847 ft | 453 kts | 247° |
| 2026-04-30 12:20 | 30.19609 | -104.98847 | 29861 ft | 452 kts | 247° |
| 2026-04-30 12:20 | 30.16896 | -105.05389 | 29848 ft | 451 kts | 247° |
| 2026-04-30 12:21 | 30.14192 | -105.11911 | 29863 ft | 449 kts | 247° |
| 2026-04-30 12:21 | 30.11491 | -105.18417 | 29860 ft | 449 kts | 247° |
| 2026-04-30 12:22 | 30.08832 | -105.24808 | 29860 ft | 449 kts | 247° |
| 2026-04-30 12:22 | 30.06121 | -105.31312 | 29840 ft | 450 kts | 246° |
| 2026-04-30 12:23 | 30.03401 | -105.37823 | 29843 ft | 450 kts | 246° |
| 2026-04-30 12:23 | 30.00681 | -105.44329 | 29852 ft | 450 kts | 246° |
| 2026-04-30 12:24 | 29.97973 | -105.50791 | 29841 ft | 451 kts | 246° |
| 2026-04-30 12:24 | 29.95242 | -105.57298 | 29839 ft | 451 kts | 246° |
| 2026-04-30 12:25 | 29.92509 | -105.63797 | 29838 ft | 450 kts | 246° |
| 2026-04-30 12:25 | 29.89777 | -105.70282 | 29830 ft | 448 kts | 246° |
| 2026-04-30 12:26 | 29.87057 | -105.76727 | 29820 ft | 446 kts | 246° |
| 2026-04-30 12:26 | 29.84347 | -105.83139 | 29812 ft | 444 kts | 246° |
| 2026-04-30 12:27 | 29.81645 | -105.89523 | 29804 ft | 443 kts | 246° |
| 2026-04-30 12:27 | 29.78942 | -105.95898 | 29813 ft | 443 kts | 246° |
| 2026-04-30 12:28 | 29.76233 | -106.02278 | 29826 ft | 444 kts | 246° |
| 2026-04-30 12:28 | 29.73519 | -106.08653 | 29806 ft | 443 kts | 246° |
| 2026-04-30 12:29 | 29.70805 | -106.15022 | 29803 ft | 443 kts | 246° |
| 2026-04-30 12:29 | 29.68115 | -106.21324 | 29817 ft | 442 kts | 246° |
| 2026-04-30 12:30 | 29.65407 | -106.27659 | 29826 ft | 441 kts | 246° |
| 2026-04-30 12:30 | 29.62697 | -106.33985 | 29816 ft | 441 kts | 246° |
| 2026-04-30 12:31 | 29.59990 | -106.40296 | 29828 ft | 440 kts | 246° |
| 2026-04-30 12:31 | 29.57279 | -106.46603 | 29839 ft | 440 kts | 246° |
| 2026-04-30 12:32 | 29.54568 | -106.52903 | 29864 ft | 440 kts | 246° |
| 2026-04-30 12:32 | 29.51851 | -106.59206 | 29862 ft | 440 kts | 246° |
| 2026-04-30 12:33 | 29.49134 | -106.65497 | 29886 ft | 440 kts | 246° |
| 2026-04-30 12:33 | 29.46412 | -106.71796 | 29872 ft | 440 kts | 246° |
| 2026-04-30 12:34 | 29.43685 | -106.78087 | 29903 ft | 441 kts | 246° |
| 2026-04-30 12:34 | 29.40965 | -106.84354 | 29911 ft | 443 kts | 246° |
| 2026-04-30 12:35 | 29.38218 | -106.90676 | 29915 ft | 444 kts | 246° |
| 2026-04-30 12:35 | 29.35461 | -106.97009 | 29919 ft | 444 kts | 246° |
| 2026-04-30 12:36 | 29.32702 | -107.03337 | 29918 ft | 443 kts | 246° |
| 2026-04-30 12:36 | 29.29946 | -107.09648 | 29925 ft | 443 kts | 245° |
| 2026-04-30 12:37 | 29.27189 | -107.15948 | 29901 ft | 442 kts | 245° |
| 2026-04-30 12:37 | 29.24431 | -107.22241 | 29939 ft | 442 kts | 245° |
| 2026-04-30 12:38 | 29.21663 | -107.28549 | 29940 ft | 444 kts | 245° |
| 2026-04-30 12:38 | 29.18883 | -107.34878 | 29951 ft | 446 kts | 245° |
| 2026-04-30 12:39 | 29.16094 | -107.41212 | 29947 ft | 446 kts | 245° |
| 2026-04-30 12:39 | 29.13313 | -107.47518 | 29967 ft | 447 kts | 245° |
| 2026-04-30 12:40 | 29.10510 | -107.53864 | 29955 ft | 447 kts | 245° |
| 2026-04-30 12:40 | 29.07702 | -107.60212 | 29954 ft | 447 kts | 245° |
| 2026-04-30 12:41 | 29.04894 | -107.66550 | 29967 ft | 447 kts | 245° |
| 2026-04-30 12:41 | 29.02079 | -107.72888 | 29960 ft | 448 kts | 245° |
| 2026-04-30 12:42 | 28.99266 | -107.79219 | 29964 ft | 446 kts | 245° |
| 2026-04-30 12:42 | 28.96456 | -107.85529 | 29965 ft | 445 kts | 245° |
| 2026-04-30 12:43 | 28.93656 | -107.91808 | 29960 ft | 443 kts | 245° |
| 2026-04-30 12:43 | 28.90857 | -107.98074 | 29951 ft | 443 kts | 245° |
| 2026-04-30 12:44 | 28.88062 | -108.04324 | 29958 ft | 443 kts | 245° |
| 2026-04-30 12:44 | 28.85275 | -108.10544 | 29963 ft | 444 kts | 245° |
| 2026-04-30 12:45 | 28.82452 | -108.16838 | 29962 ft | 447 kts | 245° |
| 2026-04-30 12:45 | 28.79609 | -108.23163 | 29969 ft | 449 kts | 245° |
| 2026-04-30 12:46 | 28.76752 | -108.29508 | 29966 ft | 451 kts | 245° |
| 2026-04-30 12:46 | 28.73887 | -108.35865 | 29960 ft | 451 kts | 245° |
| 2026-04-30 12:47 | 28.71020 | -108.42214 | 29965 ft | 450 kts | 245° |
| 2026-04-30 12:47 | 28.68166 | -108.48534 | 29958 ft | 447 kts | 245° |
| 2026-04-30 12:48 | 28.65755 | -108.55017 | 29927 ft | 442 kts | 250° |
| 2026-04-30 12:48 | 28.63560 | -108.61537 | 29970 ft | 441 kts | 250° |
| 2026-04-30 12:49 | 28.61365 | -108.68017 | 29955 ft | 441 kts | 250° |
| 2026-04-30 12:49 | 28.59125 | -108.74588 | 29958 ft | 444 kts | 250° |
| 2026-04-30 12:50 | 28.56905 | -108.81088 | 29979 ft | 443 kts | 249° |
| 2026-04-30 12:50 | 28.54665 | -108.87623 | 29965 ft | 443 kts | 249° |
| 2026-04-30 12:51 | 28.52425 | -108.94140 | 29963 ft | 442 kts | 249° |
| 2026-04-30 12:51 | 28.50185 | -109.00657 | 29956 ft | 442 kts | 249° |
| 2026-04-30 12:52 | 28.47949 | -109.07152 | 29955 ft | 441 kts | 249° |
| 2026-04-30 12:52 | 28.45714 | -109.13638 | 29941 ft | 440 kts | 249° |
| 2026-04-30 12:53 | 28.43479 | -109.20105 | 29938 ft | 439 kts | 249° |
| 2026-04-30 12:53 | 28.41245 | -109.26556 | 29903 ft | 438 kts | 249° |
| 2026-04-30 12:54 | 28.39010 | -109.32998 | 29920 ft | 439 kts | 249° |
| 2026-04-30 12:54 | 28.36768 | -109.39452 | 29903 ft | 440 kts | 249° |
| 2026-04-30 12:55 | 28.34517 | -109.45917 | 29908 ft | 440 kts | 249° |
| 2026-04-30 12:55 | 28.32277 | -109.52341 | 29900 ft | 441 kts | 248° |
| 2026-04-30 12:56 | 28.30021 | -109.58799 | 29883 ft | 440 kts | 248° |
| 2026-04-30 12:56 | 28.27763 | -109.65252 | 29881 ft | 440 kts | 248° |
| 2026-04-30 12:57 | 28.25502 | -109.71701 | 29867 ft | 439 kts | 248° |
| 2026-04-30 12:57 | 28.23243 | -109.78134 | 29868 ft | 439 kts | 248° |
| 2026-04-30 12:58 | 28.20979 | -109.84570 | 29868 ft | 440 kts | 248° |
| 2026-04-30 12:58 | 28.18709 | -109.91014 | 29869 ft | 441 kts | 248° |
| 2026-04-30 12:59 | 28.16431 | -109.97464 | 29855 ft | 441 kts | 248° |
| 2026-04-30 12:59 | 28.14151 | -110.03913 | 29872 ft | 441 kts | 248° |
| 2026-04-30 13:00 | 28.11866 | -110.10362 | 29870 ft | 441 kts | 248° |
| 2026-04-30 13:00 | 28.09580 | -110.16803 | 29882 ft | 441 kts | 248° |
| 2026-04-30 13:01 | 28.07292 | -110.23241 | 29861 ft | 440 kts | 248° |
| 2026-04-30 13:01 | 28.05003 | -110.29667 | 29864 ft | 440 kts | 248° |
| 2026-04-30 13:02 | 28.02731 | -110.36036 | 29829 ft | 439 kts | 248° |
| 2026-04-30 13:02 | 28.00430 | -110.42474 | 29873 ft | 439 kts | 248° |
| 2026-04-30 13:03 | 27.98153 | -110.48836 | 29843 ft | 439 kts | 248° |
| 2026-04-30 13:03 | 27.95846 | -110.55272 | 29853 ft | 438 kts | 248° |
| 2026-04-30 13:04 | 27.93568 | -110.61613 | 29837 ft | 439 kts | 248° |
| 2026-04-30 13:04 | 27.91266 | -110.68011 | 29862 ft | 440 kts | 248° |
| 2026-04-30 13:05 | 27.88957 | -110.74418 | 29875 ft | 441 kts | 248° |
| 2026-04-30 13:06 | 27.85476 | -110.84053 | 29878 ft | 441 kts | 248° |
| 2026-04-30 13:06 | 27.83157 | -110.90463 | 29873 ft | 440 kts | 248° |
| 2026-04-30 13:07 | 27.80839 | -110.96854 | 29873 ft | 439 kts | 248° |
| 2026-04-30 13:07 | 27.78527 | -111.03221 | 29870 ft | 438 kts | 248° |
| 2026-04-30 13:08 | 27.76217 | -111.09569 | 29863 ft | 437 kts | 248° |
| 2026-04-30 13:08 | 27.73904 | -111.15916 | 29882 ft | 437 kts | 247° |
| 2026-04-30 13:09 | 27.71606 | -111.22212 | 29864 ft | 436 kts | 247° |
| 2026-04-30 13:09 | 27.69292 | -111.28541 | 29868 ft | 436 kts | 247° |
| 2026-04-30 13:10 | 27.66976 | -111.34865 | 29856 ft | 436 kts | 247° |
| 2026-04-30 13:10 | 27.64658 | -111.41184 | 29872 ft | 436 kts | 247° |
| 2026-04-30 13:11 | 27.62335 | -111.47506 | 29874 ft | 436 kts | 247° |
| 2026-04-30 13:11 | 27.60010 | -111.53823 | 29873 ft | 437 kts | 247° |
| 2026-04-30 13:12 | 27.57678 | -111.60147 | 29876 ft | 437 kts | 247° |
| 2026-04-30 13:12 | 27.55345 | -111.66467 | 29875 ft | 437 kts | 247° |
| 2026-04-30 13:13 | 27.51837 | -111.75947 | 29875 ft | 437 kts | 247° |
| 2026-04-30 13:14 | 27.48719 | -111.84353 | 29866 ft | 437 kts | 247° |
| 2026-04-30 13:14 | 27.45210 | -111.93793 | 29865 ft | 435 kts | 247° |
| 2026-04-30 13:15 | 27.41700 | -112.03211 | 29875 ft | 435 kts | 246° |
| 2026-04-30 13:16 | 27.39353 | -112.09498 | 29884 ft | 436 kts | 246° |
| 2026-04-30 13:16 | 27.36997 | -112.15798 | 29897 ft | 437 kts | 246° |
| 2026-04-30 13:17 | 27.33462 | -112.25233 | 29887 ft | 436 kts | 246° |
| 2026-04-30 13:18 | 27.29354 | -112.34324 | 29889 ft | 434 kts | 242° |
| 2026-04-30 13:18 | 27.25099 | -112.43294 | 29917 ft | 433 kts | 242° |
| 2026-04-30 13:19 | 27.22270 | -112.49270 | 29911 ft | 433 kts | 242° |
| 2026-04-30 13:19 | 27.19445 | -112.55231 | 29940 ft | 433 kts | 242° |
| 2026-04-30 13:20 | 27.16629 | -112.61162 | 29949 ft | 433 kts | 242° |
| 2026-04-30 13:20 | 27.13789 | -112.67135 | 29926 ft | 434 kts | 242° |
| 2026-04-30 13:21 | 27.10950 | -112.73102 | 29948 ft | 433 kts | 242° |
| 2026-04-30 13:22 | 27.06691 | -112.82033 | 29952 ft | 432 kts | 242° |
| 2026-04-30 13:22 | 27.02436 | -112.90937 | 29958 ft | 431 kts | 242° |
| 2026-04-30 13:23 | 26.98182 | -112.99823 | 29940 ft | 431 kts | 242° |
| 2026-04-30 13:24 | 26.92472 | -113.11717 | 29966 ft | 435 kts | 242° |
| 2026-04-30 13:25 | 26.86723 | -113.23661 | 29944 ft | 435 kts | 242° |
| 2026-04-30 13:26 | 26.79567 | -113.38482 | 29944 ft | 433 kts | 242° |
| 2026-04-30 13:28 | 26.72418 | -113.53239 | 29949 ft | 430 kts | 242° |
| 2026-04-30 13:28 | 26.68143 | -113.62040 | 29942 ft | 429 kts | 242° |
| 2026-04-30 13:29 | 26.62433 | -113.73765 | 29949 ft | 430 kts | 242° |
| 2026-04-30 13:31 | 26.55286 | -113.88399 | 29936 ft | 429 kts | 242° |
| 2026-04-30 13:32 | 26.48127 | -114.03008 | 29960 ft | 432 kts | 242° |
| 2026-04-30 13:33 | 26.42347 | -114.14768 | 29969 ft | 432 kts | 241° |
| 2026-04-30 13:34 | 26.38020 | -114.23551 | 29970 ft | 430 kts | 241° |
| 2026-04-30 13:35 | 26.32266 | -114.35205 | 29971 ft | 428 kts | 241° |
| 2026-04-30 13:36 | 26.26513 | -114.46826 | 29963 ft | 428 kts | 241° |
| 2026-04-30 13:36 | 26.22199 | -114.55518 | 29982 ft | 427 kts | 241° |
| 2026-04-30 13:37 | 26.17884 | -114.64199 | 29981 ft | 427 kts | 241° |
| 2026-04-30 13:38 | 26.13558 | -114.72882 | 29984 ft | 428 kts | 241° |
| 2026-04-30 13:39 | 26.07795 | -114.84427 | 29984 ft | 429 kts | 241° |
| 2026-04-30 13:40 | 26.03435 | -114.93144 | 29992 ft | 431 kts | 241° |
| 2026-04-30 13:40 | 26.00517 | -114.98966 | 29993 ft | 431 kts | 241° |
| 2026-04-30 13:41 | 25.97384 | -115.04653 | 30006 ft | 431 kts | 238° |
| 2026-04-30 13:41 | 25.94160 | -115.10275 | 29997 ft | 431 kts | 238° |
| 2026-04-30 13:42 | 25.90943 | -115.15883 | 29997 ft | 430 kts | 238° |
| 2026-04-30 13:42 | 25.86135 | -115.24282 | 29996 ft | 429 kts | 238° |
| 2026-04-30 13:43 | 25.82938 | -115.29868 | 30001 ft | 429 kts | 238° |
| 2026-04-30 13:43 | 25.79738 | -115.35451 | 30013 ft | 428 kts | 238° |
| 2026-04-30 13:44 | 25.76540 | -115.41024 | 30010 ft | 428 kts | 238° |
| 2026-04-30 13:44 | 25.73340 | -115.46594 | 30001 ft | 428 kts | 238° |
| 2026-04-30 13:45 | 25.68539 | -115.54938 | 29976 ft | 428 kts | 238° |
| 2026-04-30 13:46 | 25.65330 | -115.60507 | 29998 ft | 429 kts | 238° |
| 2026-04-30 13:46 | 25.62109 | -115.66090 | 30024 ft | 431 kts | 238° |
| 2026-04-30 13:47 | 25.58873 | -115.71691 | 30014 ft | 432 kts | 238° |
| 2026-04-30 13:47 | 25.55629 | -115.77301 | 30018 ft | 432 kts | 238° |
| 2026-04-30 13:48 | 25.52407 | -115.82866 | 30014 ft | 432 kts | 238° |
| 2026-04-30 13:48 | 25.49159 | -115.88467 | 30014 ft | 432 kts | 238° |
| 2026-04-30 13:49 | 25.45916 | -115.94055 | 30020 ft | 431 kts | 238° |
| 2026-04-30 13:49 | 25.42675 | -115.99629 | 30019 ft | 431 kts | 239° |
| 2026-04-30 13:50 | 25.39434 | -116.05201 | 30017 ft | 430 kts | 239° |
| 2026-04-30 13:50 | 25.34572 | -116.13546 | 30020 ft | 430 kts | 239° |
| 2026-04-30 13:51 | 25.31332 | -116.19100 | 30025 ft | 430 kts | 239° |
| 2026-04-30 13:51 | 25.28085 | -116.24657 | 30026 ft | 430 kts | 239° |
| 2026-04-30 13:52 | 25.24837 | -116.30210 | 30034 ft | 430 kts | 239° |
| 2026-04-30 13:52 | 25.21591 | -116.35754 | 30026 ft | 430 kts | 239° |
| 2026-04-30 13:53 | 25.18345 | -116.41291 | 30031 ft | 429 kts | 239° |
| 2026-04-30 13:53 | 25.15099 | -116.46820 | 30026 ft | 429 kts | 239° |
| 2026-04-30 13:54 | 25.11872 | -116.52311 | 30032 ft | 429 kts | 239° |
| 2026-04-30 13:54 | 25.08624 | -116.57833 | 30040 ft | 429 kts | 239° |
| 2026-04-30 13:55 | 25.05376 | -116.63346 | 30037 ft | 429 kts | 239° |
| 2026-04-30 13:55 | 25.02124 | -116.68862 | 30039 ft | 429 kts | 239° |
| 2026-04-30 13:56 | 24.98874 | -116.74366 | 30036 ft | 428 kts | 239° |
| 2026-04-30 13:56 | 24.95623 | -116.79867 | 30036 ft | 428 kts | 239° |
| 2026-04-30 13:57 | 24.92367 | -116.85369 | 30041 ft | 428 kts | 239° |
| 2026-04-30 13:57 | 24.89112 | -116.90863 | 30046 ft | 429 kts | 238° |
| 2026-04-30 13:58 | 24.84222 | -116.99105 | 30032 ft | 429 kts | 239° |
| 2026-04-30 13:59 | 24.80954 | -117.04607 | 30046 ft | 430 kts | 239° |
| 2026-04-30 13:59 | 24.77678 | -117.10116 | 30046 ft | 431 kts | 239° |
| 2026-04-30 14:00 | 24.74393 | -117.15631 | 30050 ft | 431 kts | 238° |
| 2026-04-30 14:00 | 24.69460 | -117.23903 | 30050 ft | 431 kts | 238° |
| 2026-04-30 14:01 | 24.66173 | -117.29409 | 30048 ft | 431 kts | 238° |
| 2026-04-30 14:01 | 24.62884 | -117.34911 | 30050 ft | 430 kts | 238° |
| 2026-04-30 14:02 | 24.59597 | -117.40402 | 30051 ft | 430 kts | 238° |
| 2026-04-30 14:02 | 24.56310 | -117.45887 | 30052 ft | 430 kts | 238° |
| 2026-04-30 14:03 | 24.53021 | -117.51370 | 30050 ft | 430 kts | 238° |
| 2026-04-30 14:03 | 24.49728 | -117.56853 | 30052 ft | 430 kts | 238° |
| 2026-04-30 14:04 | 24.46992 | -117.61404 | 30054 ft | 430 kts | 238° |
| 2026-04-30 14:04 | 24.43160 | -117.67773 | 30050 ft | 431 kts | 238° |
| 2026-04-30 14:05 | 24.39844 | -117.73276 | 30054 ft | 433 kts | 238° |
| 2026-04-30 14:05 | 24.36517 | -117.78791 | 30058 ft | 435 kts | 238° |
| 2026-04-30 14:06 | 24.32043 | -117.86197 | 30055 ft | 436 kts | 238° |
| 2026-04-30 14:07 | 24.27041 | -117.94465 | 30056 ft | 435 kts | 238° |
| 2026-04-30 14:08 | 24.22000 | -118.02782 | 30060 ft | 434 kts | 238° |
| 2026-04-30 14:08 | 24.17009 | -118.11004 | 30058 ft | 434 kts | 238° |
| 2026-04-30 14:09 | 24.13669 | -118.16498 | 30057 ft | 433 kts | 238° |
| 2026-04-30 14:10 | 24.08661 | -118.24724 | 30060 ft | 433 kts | 238° |
| 2026-04-30 14:10 | 24.05321 | -118.30204 | 30060 ft | 433 kts | 238° |
| 2026-04-30 14:11 | 24.01978 | -118.35682 | 30052 ft | 434 kts | 238° |
| 2026-04-30 14:11 | 23.98615 | -118.41188 | 30067 ft | 437 kts | 237° |
| 2026-04-30 14:12 | 23.95222 | -118.46736 | 30061 ft | 440 kts | 237° |
| 2026-04-30 14:12 | 23.91811 | -118.52307 | 30056 ft | 442 kts | 237° |
| 2026-04-30 14:13 | 23.88387 | -118.57892 | 30059 ft | 442 kts | 237° |
| 2026-04-30 14:13 | 23.84963 | -118.63471 | 30059 ft | 441 kts | 237° |
| 2026-04-30 14:14 | 23.81548 | -118.69029 | 30064 ft | 440 kts | 238° |
| 2026-04-30 14:14 | 23.78142 | -118.74566 | 30062 ft | 439 kts | 238° |
| 2026-04-30 14:15 | 23.74742 | -118.80089 | 30070 ft | 438 kts | 238° |
| 2026-04-30 14:15 | 23.71368 | -118.85564 | 30066 ft | 438 kts | 237° |
| 2026-04-30 14:16 | 23.67971 | -118.91070 | 30067 ft | 438 kts | 237° |
| 2026-04-30 14:16 | 23.64567 | -118.96579 | 30068 ft | 438 kts | 238° |
| 2026-04-30 14:17 | 23.61159 | -119.02092 | 30039 ft | 439 kts | 237° |
| 2026-04-30 14:17 | 23.57735 | -119.07622 | 30064 ft | 441 kts | 237° |
| 2026-04-30 14:18 | 23.54295 | -119.13173 | 30072 ft | 443 kts | 237° |
| 2026-04-30 14:18 | 23.49105 | -119.21536 | 30067 ft | 445 kts | 237° |
| 2026-04-30 14:19 | 23.43904 | -119.29901 | 30069 ft | 444 kts | 238° |
| 2026-04-30 14:20 | 23.40443 | -119.35462 | 30070 ft | 443 kts | 238° |
| 2026-04-30 14:20 | 23.35267 | -119.43767 | 30071 ft | 441 kts | 238° |
| 2026-04-30 14:21 | 23.31819 | -119.49290 | 30073 ft | 441 kts | 238° |
| 2026-04-30 14:22 | 23.26650 | -119.57561 | 30077 ft | 441 kts | 238° |
| 2026-04-30 14:22 | 23.21472 | -119.65833 | 30073 ft | 441 kts | 238° |
| 2026-04-30 14:23 | 23.14550 | -119.76871 | 30069 ft | 443 kts | 238° |
| 2026-04-30 14:24 | 23.09352 | -119.85144 | 30079 ft | 445 kts | 238° |
| 2026-04-30 14:25 | 23.02370 | -119.96239 | 30077 ft | 445 kts | 238° |
| 2026-04-30 14:26 | 22.96773 | -120.04269 | 30074 ft | 445 kts | 233° |
| 2026-04-30 14:27 | 22.90820 | -120.12003 | 30074 ft | 445 kts | 233° |
| 2026-04-30 14:27 | 22.86866 | -120.17160 | 30073 ft | 444 kts | 233° |
| 2026-04-30 14:28 | 22.80942 | -120.24888 | 30073 ft | 444 kts | 233° |
| 2026-04-30 14:28 | 22.76989 | -120.30040 | 30078 ft | 445 kts | 232° |
| 2026-04-30 14:29 | 22.69704 | -120.39518 | 30096 ft | 450 kts | 232° |
| 2026-04-30 14:30 | 22.63051 | -120.48156 | 31066 ft | 443 kts | 232° |
| 2026-04-30 14:31 | 22.59128 | -120.53241 | 31698 ft | 438 kts | 232° |
| 2026-04-30 14:31 | 22.55225 | -120.58299 | 31995 ft | 439 kts | 232° |
| 2026-04-30 14:31 | 22.53270 | -120.60833 | 32048 ft | 439 kts | 232° |
| 2026-04-30 14:32 | 22.47408 | -120.68415 | 32076 ft | 436 kts | 232° |
| 2026-04-30 14:33 | 22.43518 | -120.73440 | 32076 ft | 436 kts | 232° |
| 2026-04-30 14:33 | 22.37682 | -120.80972 | 32069 ft | 436 kts | 232° |
| 2026-04-30 14:34 | 22.33779 | -120.86003 | 32079 ft | 438 kts | 232° |
| 2026-04-30 14:34 | 22.29856 | -120.91055 | 32076 ft | 439 kts | 232° |
| 2026-04-30 14:35 | 22.23947 | -120.98654 | 32067 ft | 441 kts | 232° |
| 2026-04-30 14:36 | 22.19998 | -121.03726 | 32075 ft | 442 kts | 232° |
| 2026-04-30 14:36 | 22.16068 | -121.08769 | 32074 ft | 442 kts | 232° |
| 2026-04-30 14:37 | 22.12114 | -121.13838 | 32073 ft | 441 kts | 232° |
| 2026-04-30 14:37 | 22.08161 | -121.18901 | 32068 ft | 441 kts | 232° |
| 2026-04-30 14:38 | 22.04210 | -121.23957 | 32067 ft | 440 kts | 232° |
| 2026-04-30 14:38 | 22.00261 | -121.29006 | 32063 ft | 441 kts | 232° |
| 2026-04-30 14:39 | 21.96305 | -121.34058 | 32078 ft | 442 kts | 232° |
| 2026-04-30 14:39 | 21.92335 | -121.39124 | 32069 ft | 443 kts | 232° |
| 2026-04-30 14:40 | 21.86364 | -121.46734 | 32071 ft | 444 kts | 232° |
| 2026-04-30 14:40 | 21.82374 | -121.51813 | 32072 ft | 444 kts | 232° |
| 2026-04-30 14:41 | 21.78382 | -121.56889 | 32067 ft | 444 kts | 232° |
| 2026-04-30 14:41 | 21.74386 | -121.61967 | 32068 ft | 444 kts | 232° |
| 2026-04-30 14:42 | 21.70393 | -121.67036 | 32068 ft | 444 kts | 232° |
| 2026-04-30 14:42 | 21.66399 | -121.72101 | 32067 ft | 444 kts | 232° |
| 2026-04-30 14:43 | 21.62406 | -121.77160 | 32044 ft | 444 kts | 231° |
| 2026-04-30 14:43 | 21.58405 | -121.82224 | 32065 ft | 445 kts | 232° |
| 2026-04-30 14:44 | 21.54387 | -121.87305 | 32065 ft | 447 kts | 232° |
| 2026-04-30 14:44 | 21.50352 | -121.92405 | 32069 ft | 448 kts | 231° |
| 2026-04-30 14:45 | 21.46305 | -121.97512 | 32067 ft | 449 kts | 231° |
| 2026-04-30 14:45 | 21.42252 | -122.02623 | 32064 ft | 449 kts | 231° |
| 2026-04-30 14:46 | 21.38204 | -122.07723 | 32068 ft | 449 kts | 232° |
| 2026-04-30 14:46 | 21.34836 | -122.11961 | 32063 ft | 448 kts | 232° |
| 2026-04-30 14:47 | 21.30111 | -122.17904 | 32065 ft | 447 kts | 232° |
| 2026-04-30 14:47 | 21.26076 | -122.22973 | 32064 ft | 447 kts | 232° |
| 2026-04-30 14:48 | 21.22039 | -122.28040 | 32063 ft | 446 kts | 232° |
| 2026-04-30 14:48 | 21.18036 | -122.33060 | 32061 ft | 446 kts | 232° |
| 2026-04-30 14:49 | 21.14001 | -122.38115 | 32062 ft | 446 kts | 232° |
| 2026-04-30 14:49 | 21.09964 | -122.43169 | 32063 ft | 447 kts | 232° |
| 2026-04-30 14:50 | 21.03895 | -122.50757 | 32063 ft | 448 kts | 232° |
| 2026-04-30 14:51 | 20.97813 | -122.58352 | 32062 ft | 448 kts | 232° |
| 2026-04-30 14:52 | 20.92383 | -122.65122 | 32058 ft | 448 kts | 232° |
| 2026-04-30 14:52 | 20.86290 | -122.72712 | 32059 ft | 449 kts | 231° |
| 2026-04-30 14:53 | 20.80171 | -122.80321 | 32065 ft | 450 kts | 231° |
| 2026-04-30 14:54 | 20.71987 | -122.90482 | 32057 ft | 452 kts | 232° |
| 2026-04-30 14:55 | 20.65839 | -122.98105 | 32047 ft | 452 kts | 232° |
| 2026-04-30 14:56 | 20.57638 | -123.08256 | 32064 ft | 451 kts | 232° |
| 2026-04-30 14:57 | 20.51515 | -123.15823 | 32056 ft | 451 kts | 232° |
| 2026-04-30 14:58 | 20.43318 | -123.25938 | 32060 ft | 451 kts | 231° |
| 2026-04-30 14:58 | 20.37144 | -123.33544 | 32049 ft | 453 kts | 231° |
| 2026-04-30 15:00 | 20.26819 | -123.46242 | 32048 ft | 454 kts | 231° |
| 2026-04-30 15:01 | 20.18550 | -123.56391 | 32056 ft | 453 kts | 231° |
| 2026-04-30 15:01 | 20.12350 | -123.63989 | 32053 ft | 453 kts | 231° |
| 2026-04-30 15:02 | 20.08214 | -123.69052 | 32046 ft | 453 kts | 231° |
| 2026-04-30 15:03 | 19.97855 | -123.81713 | 32048 ft | 455 kts | 231° |
| 2026-04-30 15:04 | 19.87459 | -123.94392 | 32052 ft | 455 kts | 231° |
| 2026-04-30 15:06 | 19.77052 | -124.07057 | 32045 ft | 455 kts | 231° |
| 2026-04-30 15:07 | 19.68735 | -124.17158 | 32041 ft | 454 kts | 231° |
| 2026-04-30 15:08 | 19.60429 | -124.27230 | 32043 ft | 455 kts | 231° |
| 2026-04-30 15:09 | 19.49990 | -124.39862 | 32037 ft | 455 kts | 231° |
| 2026-04-30 15:10 | 19.41640 | -124.49948 | 32043 ft | 455 kts | 231° |
| 2026-04-30 15:11 | 19.29118 | -124.65042 | 32041 ft | 455 kts | 231° |
| 2026-04-30 15:13 | 19.18638 | -124.77645 | 32038 ft | 457 kts | 231° |
| 2026-04-30 15:14 | 19.03933 | -124.95289 | 32036 ft | 456 kts | 231° |
| 2026-04-30 15:17 | 18.83840 | -125.16781 | 32042 ft | 459 kts | 227° |
| 2026-04-30 15:19 | 18.65563 | -125.35714 | 32037 ft | 461 kts | 227° |
| 2026-04-30 17:39 | 6.21129 | -139.73979 | 33949 ft | 484 kts | 233° |
| 2026-04-30 17:42 | 5.99894 | -140.00128 | 33936 ft | 484 kts | 233° |
| 2026-04-30 17:43 | 5.88687 | -140.12823 | 33936 ft | 486 kts | 231° |
| 2026-04-30 17:44 | 5.75215 | -140.28005 | 33933 ft | 486 kts | 231° |
| 2026-04-30 17:47 | 5.55018 | -140.50809 | 33937 ft | 485 kts | 232° |
| 2026-04-30 17:48 | 5.39346 | -140.68485 | 33933 ft | 484 kts | 232° |
| 2026-04-30 17:50 | 5.21481 | -140.88615 | 33943 ft | 482 kts | 232° |
| 2026-04-30 17:52 | 5.08128 | -141.03649 | 33937 ft | 480 kts | 232° |
| 2026-04-30 17:54 | 4.88158 | -141.26115 | 33936 ft | 479 kts | 232° |
| 2026-04-30 17:56 | 4.70435 | -141.46034 | 33937 ft | 479 kts | 232° |
| 2026-04-30 17:58 | 4.57128 | -141.60979 | 33939 ft | 478 kts | 232° |
| 2026-04-30 18:00 | 4.39429 | -141.80845 | 33937 ft | 477 kts | 232° |
| 2026-04-30 18:01 | 4.28434 | -141.93176 | 33937 ft | 475 kts | 232° |
| 2026-04-30 18:02 | 4.15939 | -142.07185 | 33944 ft | 475 kts | 232° |
| 2026-04-30 18:04 | 4.02720 | -142.21996 | 33938 ft | 477 kts | 232° |
| 2026-04-30 18:06 | 3.85008 | -142.41831 | 33937 ft | 478 kts | 232° |
| 2026-04-30 18:08 | 3.69470 | -142.59219 | 33941 ft | 479 kts | 232° |
| 2026-04-30 18:10 | 3.51710 | -142.79086 | 33945 ft | 479 kts | 232° |
| 2026-04-30 18:11 | 3.34307 | -142.94776 | 33937 ft | 483 kts | 225° |
| 2026-04-30 18:13 | 3.21691 | -143.05849 | 33937 ft | 482 kts | 225° |
| 2026-04-30 18:14 | 3.09090 | -143.16909 | 33940 ft | 482 kts | 225° |
| 2026-04-30 18:15 | 2.93946 | -143.30195 | 33940 ft | 484 kts | 225° |
| 2026-04-30 18:16 | 2.83818 | -143.39078 | 33940 ft | 484 kts | 225° |
| 2026-04-30 18:17 | 2.78751 | -143.43521 | 33937 ft | 484 kts | 225° |
| 2026-04-30 18:18 | 2.71152 | -143.50183 | 33936 ft | 485 kts | 224° |
| 2026-04-30 18:18 | 2.66081 | -143.54628 | 33941 ft | 485 kts | 224° |
| 2026-04-30 18:19 | 2.61008 | -143.59075 | 33941 ft | 485 kts | 224° |
| 2026-04-30 18:19 | 2.55937 | -143.63519 | 33940 ft | 485 kts | 224° |
| 2026-04-30 18:20 | 2.50861 | -143.67967 | 33938 ft | 485 kts | 224° |
| 2026-04-30 18:20 | 2.45787 | -143.72413 | 33947 ft | 485 kts | 224° |
| 2026-04-30 18:21 | 2.40707 | -143.76864 | 33936 ft | 486 kts | 224° |
| 2026-04-30 18:21 | 2.35622 | -143.81319 | 33940 ft | 486 kts | 224° |
| 2026-04-30 18:22 | 2.30526 | -143.85782 | 33941 ft | 487 kts | 224° |
| 2026-04-30 18:22 | 2.22878 | -143.92480 | 33940 ft | 487 kts | 224° |
| 2026-04-30 18:23 | 2.17779 | -143.96946 | 33944 ft | 487 kts | 224° |
| 2026-04-30 18:23 | 2.12677 | -144.01414 | 33943 ft | 488 kts | 224° |
| 2026-04-30 18:24 | 2.05021 | -144.08117 | 33942 ft | 488 kts | 224° |
| 2026-04-30 18:25 | 1.99946 | -144.12560 | 33941 ft | 488 kts | 224° |
| 2026-04-30 18:25 | 1.92288 | -144.19263 | 33942 ft | 488 kts | 224° |
| 2026-04-30 18:26 | 1.84630 | -144.25966 | 33944 ft | 488 kts | 224° |
| 2026-04-30 18:27 | 1.76977 | -144.32663 | 33952 ft | 487 kts | 224° |
| 2026-04-30 18:28 | 1.69336 | -144.39350 | 33954 ft | 487 kts | 224° |
| 2026-04-30 18:28 | 1.61695 | -144.46035 | 33947 ft | 486 kts | 224° |
| 2026-04-30 18:29 | 1.51517 | -144.54939 | 33944 ft | 486 kts | 224° |
| 2026-04-30 18:30 | 1.41355 | -144.63829 | 33945 ft | 485 kts | 224° |
| 2026-04-30 18:31 | 1.33740 | -144.70489 | 33943 ft | 485 kts | 224° |
| 2026-04-30 18:32 | 1.26119 | -144.77155 | 33949 ft | 485 kts | 224° |
| 2026-04-30 18:33 | 1.18502 | -144.83816 | 33947 ft | 485 kts | 224° |
| 2026-04-30 18:33 | 1.10885 | -144.90479 | 33952 ft | 485 kts | 224° |
| 2026-04-30 18:34 | 1.03296 | -144.97116 | 33950 ft | 485 kts | 224° |
| 2026-04-30 18:35 | 0.98297 | -145.01631 | 33948 ft | 484 kts | 226° |
| 2026-04-30 18:35 | 0.93537 | -145.06378 | 33955 ft | 483 kts | 227° |
| 2026-04-30 18:36 | 0.86442 | -145.13518 | 33951 ft | 482 kts | 227° |
| 2026-04-30 18:37 | 0.79338 | -145.20623 | 33948 ft | 482 kts | 227° |
| 2026-04-30 18:37 | 0.74597 | -145.25355 | 33948 ft | 481 kts | 227° |
| 2026-04-30 18:38 | 0.69864 | -145.30078 | 33949 ft | 480 kts | 227° |
| 2026-04-30 18:38 | 0.65139 | -145.34794 | 33950 ft | 480 kts | 227° |
| 2026-04-30 18:39 | 0.60417 | -145.39507 | 33950 ft | 480 kts | 227° |
| 2026-04-30 18:39 | 0.55700 | -145.44215 | 33949 ft | 479 kts | 227° |
| 2026-04-30 18:40 | 0.50986 | -145.48921 | 33953 ft | 479 kts | 227° |
| 2026-04-30 18:40 | 0.46273 | -145.53626 | 33951 ft | 479 kts | 227° |
| 2026-04-30 18:41 | 0.41562 | -145.58328 | 33949 ft | 479 kts | 227° |
| 2026-04-30 18:41 | 0.36851 | -145.63029 | 33945 ft | 478 kts | 227° |
| 2026-04-30 18:42 | 0.32143 | -145.67728 | 33949 ft | 478 kts | 227° |
| 2026-04-30 18:42 | 0.25085 | -145.74773 | 33949 ft | 478 kts | 227° |
| 2026-04-30 18:45 | -0.00793 | -146.00601 | 33953 ft | 478 kts | 226° |
| 2026-04-30 18:46 | -0.05499 | -146.05298 | 33952 ft | 478 kts | 226° |
| 2026-04-30 18:46 | -0.10207 | -146.09996 | 33957 ft | 478 kts | 226° |
| 2026-04-30 18:47 | -0.14123 | -146.13903 | 33957 ft | 479 kts | 226° |
| 2026-04-30 18:47 | -0.18835 | -146.18606 | 33954 ft | 479 kts | 226° |
| 2026-04-30 18:48 | -0.23547 | -146.23309 | 33954 ft | 479 kts | 226° |
| 2026-04-30 18:48 | -0.28258 | -146.28011 | 33954 ft | 479 kts | 226° |
| 2026-04-30 18:49 | -0.32973 | -146.32717 | 33950 ft | 479 kts | 226° |
| 2026-04-30 18:49 | -0.37682 | -146.37417 | 33950 ft | 479 kts | 226° |
| 2026-04-30 18:50 | -0.42392 | -146.42118 | 33955 ft | 479 kts | 226° |
| 2026-04-30 18:50 | -0.47105 | -146.46822 | 33954 ft | 479 kts | 226° |
| 2026-04-30 18:51 | -0.51813 | -146.51521 | 33954 ft | 479 kts | 226° |
| 2026-04-30 18:51 | -0.56524 | -146.56223 | 33953 ft | 479 kts | 226° |
| 2026-04-30 18:52 | -0.61236 | -146.60927 | 33953 ft | 479 kts | 226° |
| 2026-04-30 18:52 | -0.65912 | -146.65595 | 33950 ft | 479 kts | 226° |
| 2026-04-30 18:53 | -0.70630 | -146.70304 | 33957 ft | 480 kts | 226° |
| 2026-04-30 18:53 | -0.75355 | -146.75021 | 33961 ft | 480 kts | 226° |
| 2026-04-30 18:54 | -0.80086 | -146.79744 | 33965 ft | 481 kts | 226° |
| 2026-04-30 18:54 | -0.84819 | -146.84469 | 33959 ft | 481 kts | 226° |
| 2026-04-30 18:55 | -0.89556 | -146.89198 | 33952 ft | 481 kts | 226° |
| 2026-04-30 18:55 | -0.96661 | -146.96291 | 33955 ft | 481 kts | 226° |
| 2026-04-30 18:56 | -1.03765 | -147.03385 | 33954 ft | 481 kts | 226° |
| 2026-04-30 18:57 | -1.10874 | -147.10483 | 33959 ft | 481 kts | 226° |
| 2026-04-30 18:57 | -1.15573 | -147.15177 | 33959 ft | 481 kts | 225° |
| 2026-04-30 18:58 | -1.22675 | -147.22268 | 33960 ft | 481 kts | 225° |
| 2026-04-30 18:59 | -1.29772 | -147.29357 | 33958 ft | 481 kts | 225° |
| 2026-04-30 19:00 | -1.39239 | -147.38813 | 33957 ft | 481 kts | 225° |
| 2026-04-30 19:01 | -1.48709 | -147.48274 | 33963 ft | 481 kts | 225° |
| 2026-04-30 19:02 | -1.55813 | -147.55371 | 33955 ft | 481 kts | 225° |
| 2026-04-30 19:03 | -1.65276 | -147.64826 | 33959 ft | 481 kts | 225° |
| 2026-04-30 19:04 | -1.74734 | -147.74278 | 33951 ft | 481 kts | 225° |
| 2026-04-30 19:05 | -1.84156 | -147.83695 | 33960 ft | 480 kts | 225° |
| 2026-04-30 19:06 | -1.93603 | -147.93139 | 33956 ft | 480 kts | 225° |
| 2026-04-30 19:06 | -2.00683 | -148.00218 | 33964 ft | 480 kts | 224° |
| 2026-04-30 19:07 | -2.07751 | -148.07284 | 33960 ft | 479 kts | 224° |
| 2026-04-30 19:08 | -2.17156 | -148.16690 | 33959 ft | 478 kts | 224° |
| 2026-04-30 19:09 | -2.24201 | -148.23738 | 33957 ft | 477 kts | 224° |
| 2026-04-30 19:09 | -2.28896 | -148.28434 | 33959 ft | 477 kts | 224° |
| 2026-04-30 19:10 | -2.38270 | -148.37812 | 33959 ft | 477 kts | 224° |
| 2026-04-30 19:11 | -2.45299 | -148.44847 | 33959 ft | 476 kts | 224° |
| 2026-04-30 19:12 | -2.49984 | -148.49535 | 33956 ft | 476 kts | 224° |
| 2026-04-30 19:12 | -2.54664 | -148.54220 | 33962 ft | 476 kts | 224° |
| 2026-04-30 19:13 | -2.64022 | -148.63588 | 33959 ft | 476 kts | 224° |
| 2026-04-30 19:14 | -2.68700 | -148.68272 | 33964 ft | 476 kts | 224° |
| 2026-04-30 19:14 | -2.73349 | -148.72927 | 33961 ft | 476 kts | 224° |
| 2026-04-30 19:15 | -2.78023 | -148.77609 | 33957 ft | 476 kts | 224° |
| 2026-04-30 19:15 | -2.85038 | -148.84635 | 33959 ft | 476 kts | 224° |
| 2026-04-30 19:16 | -2.89712 | -148.89317 | 33955 ft | 476 kts | 224° |
| 2026-04-30 19:17 | -2.96723 | -148.96342 | 33955 ft | 476 kts | 224° |
| 2026-04-30 19:17 | -3.03736 | -149.03370 | 33961 ft | 476 kts | 224° |
| 2026-04-30 19:18 | -3.10742 | -149.10393 | 33953 ft | 475 kts | 224° |
| 2026-04-30 19:19 | -3.15409 | -149.15071 | 33955 ft | 474 kts | 224° |
| 2026-04-30 19:19 | -3.22391 | -149.22072 | 33956 ft | 474 kts | 224° |
| 2026-04-30 19:20 | -3.27046 | -149.26740 | 33963 ft | 473 kts | 224° |
| 2026-04-30 19:21 | -3.34017 | -149.33732 | 33958 ft | 473 kts | 224° |
| 2026-04-30 19:22 | -3.43256 | -149.43002 | 33959 ft | 471 kts | 224° |
| 2026-04-30 19:23 | -3.57130 | -149.56926 | 33959 ft | 471 kts | 224° |
| 2026-04-30 19:24 | -3.64060 | -149.63884 | 33961 ft | 470 kts | 224° |
| 2026-04-30 19:25 | -3.75608 | -149.75482 | 33961 ft | 470 kts | 224° |
| 2026-04-30 19:26 | -3.84835 | -149.84753 | 33954 ft | 470 kts | 224° |
| 2026-04-30 19:27 | -3.91753 | -149.91706 | 33956 ft | 470 kts | 224° |
| 2026-04-30 19:28 | -3.98638 | -149.98628 | 33954 ft | 470 kts | 224° |
| 2026-04-30 19:29 | -4.07045 | -150.08653 | 33961 ft | 471 kts | 230° |
| 2026-04-30 19:30 | -4.15267 | -150.18865 | 33949 ft | 471 kts | 230° |
| 2026-04-30 19:31 | -4.23519 | -150.29068 | 33961 ft | 471 kts | 230° |
| 2026-04-30 19:31 | -4.29712 | -150.36728 | 33959 ft | 472 kts | 230° |
| 2026-04-30 19:32 | -4.33845 | -150.41843 | 33957 ft | 472 kts | 229° |
| 2026-04-30 19:32 | -4.37980 | -150.46960 | 33962 ft | 473 kts | 229° |
| 2026-04-30 19:33 | -4.42117 | -150.52081 | 33955 ft | 473 kts | 229° |
| 2026-04-30 19:33 | -4.46259 | -150.57209 | 33960 ft | 473 kts | 229° |
| 2026-04-30 19:34 | -4.50395 | -150.62331 | 33954 ft | 473 kts | 229° |
| 2026-04-30 19:35 | -4.56603 | -150.70021 | 33961 ft | 473 kts | 229° |
| 2026-04-30 19:35 | -4.60742 | -150.75149 | 33958 ft | 473 kts | 229° |
| 2026-04-30 19:36 | -4.64880 | -150.80277 | 33961 ft | 473 kts | 229° |
| 2026-04-30 19:36 | -4.70392 | -150.87109 | 33956 ft | 474 kts | 229° |
| 2026-04-30 19:37 | -4.74540 | -150.92252 | 33957 ft | 475 kts | 229° |
| 2026-04-30 19:37 | -4.78693 | -150.97402 | 33962 ft | 475 kts | 229° |
| 2026-04-30 19:38 | -4.83520 | -151.03389 | 33961 ft | 475 kts | 229° |
| 2026-04-30 19:38 | -4.87004 | -151.07712 | 33957 ft | 476 kts | 229° |
| 2026-04-30 19:39 | -4.91162 | -151.12872 | 33953 ft | 476 kts | 229° |
| 2026-04-30 19:39 | -4.95320 | -151.18033 | 33956 ft | 476 kts | 229° |
| 2026-04-30 19:40 | -4.99477 | -151.23194 | 33956 ft | 476 kts | 229° |
| 2026-04-30 19:40 | -5.03607 | -151.28323 | 33959 ft | 476 kts | 229° |
| 2026-04-30 19:41 | -5.07772 | -151.33495 | 33958 ft | 477 kts | 229° |
| 2026-04-30 19:41 | -5.11943 | -151.38676 | 33958 ft | 477 kts | 228° |
| 2026-04-30 19:42 | -5.16117 | -151.43863 | 33958 ft | 478 kts | 228° |
| 2026-04-30 19:42 | -5.20291 | -151.49051 | 33960 ft | 478 kts | 228° |
| 2026-04-30 19:43 | -5.24471 | -151.54247 | 33957 ft | 478 kts | 228° |
| 2026-04-30 19:44 | -5.30732 | -151.62033 | 33956 ft | 478 kts | 228° |
| 2026-04-30 19:44 | -5.34906 | -151.67225 | 33955 ft | 478 kts | 228° |
| 2026-04-30 19:45 | -5.39079 | -151.72418 | 33956 ft | 478 kts | 228° |
| 2026-04-30 19:45 | -5.43255 | -151.77615 | 33954 ft | 478 kts | 228° |
| 2026-04-30 19:46 | -5.47432 | -151.82814 | 33958 ft | 479 kts | 228° |
| 2026-04-30 19:46 | -5.51615 | -151.88022 | 33958 ft | 479 kts | 228° |
| 2026-04-30 19:47 | -5.55798 | -151.93232 | 33953 ft | 479 kts | 228° |
| 2026-04-30 19:47 | -5.59981 | -151.98443 | 33950 ft | 479 kts | 228° |
| 2026-04-30 19:48 | -5.64137 | -152.03622 | 33965 ft | 479 kts | 228° |
| 2026-04-30 19:48 | -5.68322 | -152.08838 | 33967 ft | 480 kts | 228° |
| 2026-04-30 19:49 | -5.72505 | -152.14053 | 33963 ft | 480 kts | 228° |
| 2026-04-30 19:49 | -5.78788 | -152.21888 | 33964 ft | 480 kts | 228° |
| 2026-04-30 19:50 | -5.82981 | -152.27118 | 33948 ft | 481 kts | 229° |
| 2026-04-30 19:50 | -5.87174 | -152.32351 | 33960 ft | 481 kts | 229° |
| 2026-04-30 19:51 | -5.91376 | -152.37595 | 33956 ft | 482 kts | 229° |
| 2026-04-30 19:51 | -5.95575 | -152.42839 | 33956 ft | 482 kts | 229° |
| 2026-04-30 19:52 | -5.99778 | -152.48087 | 33959 ft | 482 kts | 229° |
| 2026-04-30 19:52 | -6.03978 | -152.53334 | 33951 ft | 482 kts | 229° |
| 2026-04-30 19:53 | -6.08185 | -152.58590 | 33966 ft | 483 kts | 229° |
| 2026-04-30 19:53 | -6.12398 | -152.63855 | 33958 ft | 484 kts | 229° |
| 2026-04-30 19:54 | -6.16618 | -152.69132 | 33965 ft | 484 kts | 229° |
| 2026-04-30 19:54 | -6.20838 | -152.74409 | 33957 ft | 485 kts | 229° |
| 2026-04-30 19:55 | -6.25063 | -152.79694 | 33959 ft | 485 kts | 229° |
| 2026-04-30 19:55 | -6.29261 | -152.84947 | 33955 ft | 485 kts | 229° |
| 2026-04-30 19:56 | -6.33487 | -152.90237 | 33957 ft | 485 kts | 229° |
| 2026-04-30 19:56 | -6.37715 | -152.95531 | 33960 ft | 485 kts | 229° |
| 2026-04-30 19:57 | -6.41939 | -153.00821 | 33958 ft | 485 kts | 229° |
| 2026-04-30 19:57 | -6.46162 | -153.06111 | 33959 ft | 485 kts | 229° |
| 2026-04-30 19:58 | -6.50384 | -153.11402 | 33959 ft | 485 kts | 229° |
| 2026-04-30 19:58 | -6.54603 | -153.16691 | 33955 ft | 485 kts | 229° |
| 2026-04-30 19:59 | -6.58820 | -153.21978 | 33960 ft | 485 kts | 229° |
| 2026-04-30 20:00 | -6.65146 | -153.29913 | 33959 ft | 485 kts | 229° |
| 2026-04-30 20:00 | -6.69366 | -153.35207 | 33962 ft | 485 kts | 229° |
| 2026-04-30 20:01 | -6.75695 | -153.43153 | 33959 ft | 485 kts | 229° |
| 2026-04-30 20:01 | -6.79913 | -153.48450 | 33964 ft | 485 kts | 229° |
| 2026-04-30 20:02 | -6.86243 | -153.56402 | 33961 ft | 485 kts | 229° |
| 2026-04-30 20:03 | -6.92572 | -153.64357 | 33964 ft | 485 kts | 229° |
| 2026-04-30 20:03 | -6.96790 | -153.69660 | 33963 ft | 485 kts | 229° |
| 2026-04-30 20:04 | -7.00978 | -153.74929 | 33957 ft | 485 kts | 229° |
| 2026-04-30 20:05 | -7.07302 | -153.82886 | 33962 ft | 485 kts | 229° |
| 2026-04-30 20:05 | -7.13624 | -153.90845 | 33962 ft | 485 kts | 229° |
| 2026-04-30 20:06 | -7.17835 | -153.96148 | 33968 ft | 485 kts | 229° |
| 2026-04-30 20:06 | -7.22053 | -154.01462 | 33961 ft | 486 kts | 229° |
| 2026-04-30 20:07 | -7.26270 | -154.06777 | 33957 ft | 486 kts | 229° |
| 2026-04-30 20:08 | -7.32595 | -154.14751 | 33960 ft | 486 kts | 229° |
| 2026-04-30 20:08 | -7.36813 | -154.20071 | 33958 ft | 486 kts | 229° |
| 2026-04-30 20:09 | -7.41027 | -154.25389 | 33962 ft | 486 kts | 230° |
| 2026-04-30 20:09 | -7.47324 | -154.33337 | 33962 ft | 486 kts | 230° |
| 2026-04-30 20:10 | -7.53646 | -154.41321 | 33964 ft | 486 kts | 230° |
| 2026-04-30 20:11 | -7.59965 | -154.49305 | 33960 ft | 486 kts | 230° |
| 2026-04-30 20:11 | -7.64180 | -154.54634 | 33958 ft | 486 kts | 230° |
| 2026-04-30 20:12 | -7.70499 | -154.62626 | 33962 ft | 486 kts | 230° |
| 2026-04-30 20:13 | -7.74709 | -154.67954 | 33962 ft | 486 kts | 230° |
| 2026-04-30 20:13 | -7.78919 | -154.73282 | 33961 ft | 486 kts | 230° |
| 2026-04-30 20:14 | -7.83130 | -154.78614 | 33962 ft | 486 kts | 230° |
| 2026-04-30 20:14 | -7.87337 | -154.83943 | 33959 ft | 486 kts | 230° |
| 2026-04-30 20:15 | -7.91545 | -154.89277 | 33968 ft | 486 kts | 229° |
| 2026-04-30 20:15 | -7.95755 | -154.94614 | 33961 ft | 486 kts | 229° |
| 2026-04-30 20:16 | -7.99995 | -154.99924 | 33952 ft | 486 kts | 227° |
| 2026-04-30 20:16 | -8.04771 | -155.04714 | 33968 ft | 484 kts | 222° |
| 2026-04-30 20:17 | -8.09676 | -155.09375 | 33962 ft | 485 kts | 222° |
| 2026-04-30 20:17 | -8.14546 | -155.14033 | 33962 ft | 486 kts | 222° |
| 2026-04-30 20:18 | -8.19432 | -155.18742 | 33967 ft | 486 kts | 222° |
| 2026-04-30 20:18 | -8.24320 | -155.23466 | 33966 ft | 486 kts | 222° |
| 2026-04-30 20:19 | -8.29205 | -155.28191 | 33970 ft | 486 kts | 222° |
| 2026-04-30 20:19 | -8.34094 | -155.32918 | 33958 ft | 486 kts | 222° |
| 2026-04-30 20:20 | -8.38979 | -155.37642 | 33964 ft | 486 kts | 222° |
| 2026-04-30 20:20 | -8.43867 | -155.42371 | 33960 ft | 486 kts | 222° |
| 2026-04-30 20:21 | -8.48754 | -155.47100 | 33968 ft | 486 kts | 222° |
| 2026-04-30 20:21 | -8.53637 | -155.51828 | 33965 ft | 486 kts | 222° |
| 2026-04-30 20:22 | -8.58523 | -155.56560 | 33962 ft | 487 kts | 222° |
| 2026-04-30 20:22 | -8.63410 | -155.61295 | 33962 ft | 486 kts | 222° |
| 2026-04-30 20:23 | -8.68257 | -155.65994 | 33964 ft | 486 kts | 222° |
| 2026-04-30 20:23 | -8.73142 | -155.70730 | 33960 ft | 486 kts | 222° |
| 2026-04-30 20:24 | -8.78024 | -155.75466 | 33964 ft | 486 kts | 222° |
| 2026-04-30 20:24 | -8.82908 | -155.80205 | 33961 ft | 486 kts | 222° |
| 2026-04-30 20:25 | -8.90229 | -155.87313 | 33966 ft | 486 kts | 222° |
| 2026-04-30 20:26 | -8.97550 | -155.94425 | 33961 ft | 486 kts | 222° |
| 2026-04-30 20:26 | -9.04864 | -156.01534 | 33960 ft | 486 kts | 222° |
| 2026-04-30 20:27 | -9.14605 | -156.11008 | 33964 ft | 485 kts | 222° |
| 2026-04-30 20:28 | -9.23509 | -156.19676 | 33966 ft | 485 kts | 222° |
| 2026-04-30 20:30 | -9.35670 | -156.31524 | 33963 ft | 485 kts | 222° |
| 2026-04-30 20:31 | -9.50243 | -156.45738 | 33960 ft | 485 kts | 222° |
| 2026-04-30 20:32 | -9.62345 | -156.57555 | 33971 ft | 484 kts | 222° |
| 2026-04-30 20:33 | -9.69611 | -156.64657 | 33961 ft | 483 kts | 222° |
| 2026-04-30 20:34 | -9.76852 | -156.71738 | 33965 ft | 481 kts | 222° |
| 2026-04-30 20:35 | -9.84065 | -156.78797 | 33968 ft | 480 kts | 222° |
| 2026-04-30 20:35 | -9.91268 | -156.85850 | 33966 ft | 480 kts | 222° |
| 2026-04-30 20:36 | -9.96064 | -156.90550 | 33970 ft | 479 kts | 222° |
| 2026-04-30 20:37 | -10.03250 | -156.97595 | 33960 ft | 478 kts | 222° |
| 2026-04-30 20:37 | -10.08015 | -157.02289 | 33966 ft | 478 kts | 222° |
| 2026-04-30 20:38 | -10.12738 | -157.07033 | 33962 ft | 477 kts | 223° |
| 2026-04-30 20:38 | -10.17414 | -157.11752 | 33963 ft | 477 kts | 223° |
| 2026-04-30 20:39 | -10.24485 | -157.18873 | 33965 ft | 477 kts | 223° |
| 2026-04-30 20:40 | -10.31565 | -157.25997 | 33966 ft | 478 kts | 223° |
| 2026-04-30 20:40 | -10.36280 | -157.30743 | 33964 ft | 478 kts | 223° |
| 2026-04-30 20:41 | -10.43358 | -157.37873 | 33967 ft | 478 kts | 223° |
| 2026-04-30 20:41 | -10.48076 | -157.42629 | 33963 ft | 478 kts | 223° |
| 2026-04-30 20:42 | -10.52793 | -157.47385 | 33968 ft | 478 kts | 223° |
| 2026-04-30 20:43 | -10.59869 | -157.54525 | 33964 ft | 478 kts | 223° |
| 2026-04-30 20:43 | -10.64587 | -157.59288 | 33968 ft | 478 kts | 223° |
| 2026-04-30 20:44 | -10.71666 | -157.66439 | 33969 ft | 478 kts | 223° |
| 2026-04-30 20:45 | -10.81110 | -157.75986 | 33967 ft | 479 kts | 223° |
| 2026-04-30 20:45 | -10.85836 | -157.80767 | 33968 ft | 479 kts | 223° |
| 2026-04-30 20:46 | -10.95256 | -157.90305 | 33972 ft | 479 kts | 223° |
| 2026-04-30 20:47 | -11.02346 | -157.97488 | 33969 ft | 479 kts | 223° |
| 2026-04-30 20:48 | -11.09435 | -158.04677 | 33966 ft | 480 kts | 223° |
| 2026-04-30 20:48 | -11.14163 | -158.09473 | 33965 ft | 479 kts | 223° |
| 2026-04-30 20:49 | -11.18885 | -158.14267 | 33970 ft | 479 kts | 223° |
| 2026-04-30 20:50 | -11.25967 | -158.21460 | 33966 ft | 480 kts | 223° |
| 2026-04-30 20:50 | -11.30694 | -158.26264 | 33966 ft | 480 kts | 223° |
| 2026-04-30 20:51 | -11.35425 | -158.31075 | 33969 ft | 481 kts | 223° |
| 2026-04-30 20:51 | -11.42525 | -158.38299 | 33968 ft | 481 kts | 223° |
| 2026-04-30 20:52 | -11.47260 | -158.43120 | 33971 ft | 481 kts | 223° |
| 2026-04-30 20:52 | -11.52008 | -158.47955 | 34198 ft | 483 kts | 223° |
| 2026-04-30 20:53 | -11.54375 | -158.50368 | 34577 ft | 479 kts | 223° |
| 2026-04-30 20:53 | -11.56718 | -158.52758 | 35004 ft | 474 kts | 223° |
| 2026-04-30 20:53 | -11.59045 | -158.55130 | 35387 ft | 471 kts | 223° |
| 2026-04-30 20:54 | -11.63650 | -158.59827 | 35910 ft | 469 kts | 223° |
| 2026-04-30 20:54 | -11.65961 | -158.62184 | 35942 ft | 470 kts | 223° |
| 2026-04-30 20:55 | -11.72863 | -158.69229 | 35967 ft | 466 kts | 223° |
| 2026-04-30 20:55 | -11.77437 | -158.73901 | 35969 ft | 464 kts | 223° |
| 2026-04-30 20:56 | -11.84274 | -158.80889 | 35975 ft | 464 kts | 223° |
| 2026-04-30 20:57 | -11.91084 | -158.87853 | 35969 ft | 465 kts | 224° |
| 2026-04-30 20:57 | -11.95660 | -158.92536 | 35973 ft | 466 kts | 224° |
| 2026-04-30 20:58 | -12.02542 | -158.99585 | 35977 ft | 468 kts | 224° |
| 2026-04-30 20:58 | -12.07140 | -159.04297 | 35976 ft | 469 kts | 224° |
| 2026-04-30 20:59 | -12.14047 | -159.11379 | 35975 ft | 469 kts | 224° |
| 2026-04-30 21:00 | -12.23243 | -159.20818 | 35970 ft | 468 kts | 224° |
| 2026-04-30 21:01 | -12.30123 | -159.27885 | 35989 ft | 468 kts | 224° |
| 2026-04-30 21:02 | -12.37002 | -159.34958 | 35975 ft | 467 kts | 224° |
| 2026-04-30 21:02 | -12.41579 | -159.39667 | 35975 ft | 467 kts | 224° |
| 2026-04-30 21:03 | -12.46153 | -159.44375 | 35990 ft | 466 kts | 224° |
| 2026-04-30 21:03 | -12.50727 | -159.49086 | 35974 ft | 466 kts | 224° |
| 2026-04-30 21:04 | -12.55263 | -159.53761 | 35974 ft | 466 kts | 224° |
| 2026-04-30 21:04 | -12.62117 | -159.60827 | 35990 ft | 466 kts | 224° |
| 2026-04-30 21:05 | -12.66684 | -159.65540 | 35974 ft | 466 kts | 224° |
| 2026-04-30 21:05 | -12.71250 | -159.70254 | 35974 ft | 466 kts | 224° |
| 2026-04-30 21:06 | -12.75815 | -159.74970 | 35976 ft | 466 kts | 224° |
| 2026-04-30 21:06 | -12.80374 | -159.79682 | 35975 ft | 465 kts | 224° |
| 2026-04-30 21:07 | -12.84929 | -159.84392 | 35977 ft | 465 kts | 224° |
| 2026-04-30 21:07 | -12.89478 | -159.89100 | 35989 ft | 464 kts | 224° |
| 2026-04-30 21:08 | -12.94020 | -159.93803 | 35973 ft | 464 kts | 224° |
| 2026-04-30 21:08 | -12.98561 | -159.98506 | 35970 ft | 464 kts | 224° |
| 2026-04-30 21:09 | -13.02887 | -160.03414 | 35993 ft | 464 kts | 229° |
| 2026-04-30 21:09 | -13.07044 | -160.08486 | 35994 ft | 464 kts | 229° |
| 2026-04-30 21:10 | -13.11189 | -160.13551 | 35972 ft | 463 kts | 229° |
| 2026-04-30 21:10 | -13.15342 | -160.18607 | 35978 ft | 463 kts | 229° |
| 2026-04-30 21:11 | -13.19492 | -160.23650 | 35976 ft | 462 kts | 229° |
| 2026-04-30 21:11 | -13.23639 | -160.28691 | 35974 ft | 462 kts | 229° |
| 2026-04-30 21:12 | -13.27753 | -160.33694 | 35990 ft | 462 kts | 229° |
| 2026-04-30 21:12 | -13.31895 | -160.38734 | 35971 ft | 462 kts | 229° |
| 2026-04-30 21:13 | -13.36038 | -160.43780 | 35973 ft | 462 kts | 229° |
| 2026-04-30 21:13 | -13.40178 | -160.48824 | 35978 ft | 462 kts | 229° |
| 2026-04-30 21:14 | -13.44319 | -160.53873 | 35978 ft | 462 kts | 229° |
| 2026-04-30 21:14 | -13.48455 | -160.58919 | 35971 ft | 461 kts | 229° |
| 2026-04-30 21:15 | -13.52585 | -160.63960 | 35974 ft | 460 kts | 229° |
| 2026-04-30 21:15 | -13.56708 | -160.68995 | 35973 ft | 460 kts | 229° |
| 2026-04-30 21:16 | -13.60818 | -160.74018 | 35973 ft | 459 kts | 229° |
| 2026-04-30 21:16 | -13.64928 | -160.79044 | 35974 ft | 459 kts | 229° |
| 2026-04-30 21:17 | -13.69032 | -160.84065 | 35973 ft | 459 kts | 229° |
| 2026-04-30 21:17 | -13.72469 | -160.88272 | 35970 ft | 459 kts | 229° |
| 2026-04-30 21:18 | -13.76545 | -160.93266 | 35976 ft | 459 kts | 229° |
| 2026-04-30 21:18 | -13.80647 | -160.98293 | 35975 ft | 459 kts | 229° |
| 2026-04-30 21:19 | -13.84753 | -161.03327 | 35975 ft | 459 kts | 229° |
| 2026-04-30 21:19 | -13.88852 | -161.08357 | 35975 ft | 459 kts | 229° |
| 2026-04-30 21:20 | -13.92955 | -161.13396 | 35974 ft | 459 kts | 229° |
| 2026-04-30 21:20 | -13.97059 | -161.18438 | 35976 ft | 459 kts | 229° |
| 2026-04-30 21:21 | -14.01159 | -161.23478 | 35973 ft | 459 kts | 229° |
| 2026-04-30 21:22 | -14.07308 | -161.31042 | 35977 ft | 459 kts | 229° |
| 2026-04-30 21:23 | -14.15507 | -161.41140 | 35973 ft | 459 kts | 229° |
| 2026-04-30 21:23 | -14.21623 | -161.48681 | 35974 ft | 459 kts | 229° |
| 2026-04-30 21:24 | -14.25714 | -161.53728 | 35971 ft | 458 kts | 229° |
| 2026-04-30 21:24 | -14.29797 | -161.58770 | 35969 ft | 458 kts | 229° |
| 2026-04-30 21:25 | -14.35908 | -161.66320 | 35971 ft | 457 kts | 229° |
| 2026-04-30 21:26 | -14.42005 | -161.73861 | 35973 ft | 456 kts | 230° |
| 2026-04-30 21:27 | -14.48103 | -161.81409 | 35972 ft | 456 kts | 230° |
| 2026-04-30 21:27 | -14.52161 | -161.86437 | 35969 ft | 456 kts | 230° |
| 2026-04-30 21:28 | -14.58251 | -161.93988 | 35974 ft | 456 kts | 230° |
| 2026-04-30 21:29 | -14.64311 | -162.01508 | 35969 ft | 456 kts | 230° |
| 2026-04-30 21:30 | -14.74436 | -162.14090 | 35972 ft | 455 kts | 230° |
| 2026-04-30 21:31 | -14.84538 | -162.26663 | 35971 ft | 455 kts | 230° |
| 2026-04-30 21:32 | -14.90590 | -162.34205 | 35969 ft | 454 kts | 230° |
| 2026-04-30 21:32 | -14.94623 | -162.39235 | 35980 ft | 454 kts | 230° |
| 2026-04-30 21:33 | -15.00665 | -162.46777 | 35969 ft | 453 kts | 230° |
| 2026-04-30 21:34 | -15.04683 | -162.51797 | 35968 ft | 453 kts | 230° |
| 2026-04-30 21:34 | -15.10703 | -162.59323 | 35969 ft | 452 kts | 230° |
| 2026-04-30 21:35 | -15.14708 | -162.64335 | 35974 ft | 452 kts | 230° |
| 2026-04-30 21:35 | -15.18710 | -162.69346 | 35973 ft | 451 kts | 230° |
| 2026-04-30 21:36 | -15.22704 | -162.74349 | 35972 ft | 451 kts | 230° |
| 2026-04-30 21:37 | -15.30687 | -162.84362 | 35969 ft | 451 kts | 230° |
| 2026-04-30 21:37 | -15.34675 | -162.89369 | 35980 ft | 450 kts | 230° |
| 2026-04-30 21:38 | -15.38664 | -162.94380 | 35972 ft | 450 kts | 230° |
| 2026-04-30 21:38 | -15.42648 | -162.99388 | 35969 ft | 450 kts | 231° |
| 2026-04-30 21:39 | -15.46626 | -163.04391 | 35972 ft | 450 kts | 231° |
| 2026-04-30 21:39 | -15.50598 | -163.09391 | 35973 ft | 449 kts | 231° |
| 2026-04-30 21:40 | -15.54570 | -163.14395 | 35972 ft | 449 kts | 231° |
| 2026-04-30 21:40 | -15.58512 | -163.19363 | 35972 ft | 449 kts | 231° |
| 2026-04-30 21:41 | -15.62481 | -163.24369 | 35969 ft | 449 kts | 231° |
| 2026-04-30 21:41 | -15.66447 | -163.29374 | 35970 ft | 449 kts | 231° |
| 2026-04-30 21:42 | -15.70413 | -163.34383 | 35978 ft | 449 kts | 231° |
| 2026-04-30 21:42 | -15.74378 | -163.39395 | 35974 ft | 449 kts | 231° |
| 2026-04-30 21:43 | -15.78340 | -163.44405 | 35972 ft | 449 kts | 231° |
| 2026-04-30 21:43 | -15.82296 | -163.49411 | 35972 ft | 448 kts | 231° |
| 2026-04-30 21:44 | -15.86246 | -163.54415 | 35972 ft | 448 kts | 231° |
| 2026-04-30 21:44 | -15.90193 | -163.59416 | 35973 ft | 448 kts | 231° |
| 2026-04-30 21:45 | -15.94139 | -163.64420 | 35971 ft | 447 kts | 231° |
| 2026-04-30 21:45 | -15.98080 | -163.69421 | 35970 ft | 447 kts | 231° |
| 2026-04-30 21:46 | -16.02022 | -163.74427 | 35970 ft | 447 kts | 231° |
| 2026-04-30 21:46 | -16.05938 | -163.79404 | 35973 ft | 448 kts | 231° |
| 2026-04-30 21:47 | -16.09905 | -163.84448 | 35979 ft | 448 kts | 231° |
| 2026-04-30 21:47 | -16.13816 | -163.89425 | 35972 ft | 447 kts | 231° |
| 2026-04-30 21:48 | -16.17750 | -163.94434 | 35970 ft | 447 kts | 231° |
| 2026-04-30 21:48 | -16.21674 | -163.99435 | 35970 ft | 446 kts | 231° |
| 2026-04-30 21:49 | -16.25596 | -164.04436 | 35965 ft | 446 kts | 231° |
| 2026-04-30 21:49 | -16.29514 | -164.09436 | 35966 ft | 445 kts | 231° |
| 2026-04-30 21:50 | -16.33428 | -164.14434 | 35969 ft | 446 kts | 231° |
| 2026-04-30 21:50 | -16.37343 | -164.19437 | 35970 ft | 446 kts | 231° |
| 2026-04-30 21:51 | -16.41259 | -164.24445 | 35970 ft | 446 kts | 231° |
| 2026-04-30 21:51 | -16.45178 | -164.29460 | 35983 ft | 446 kts | 231° |
| 2026-04-30 21:52 | -16.49092 | -164.34471 | 35975 ft | 446 kts | 231° |
| 2026-04-30 21:52 | -16.53004 | -164.39486 | 35969 ft | 446 kts | 231° |
| 2026-04-30 21:53 | -16.56909 | -164.44493 | 35971 ft | 445 kts | 232° |
| 2026-04-30 21:53 | -16.60811 | -164.49501 | 35967 ft | 445 kts | 232° |
| 2026-04-30 21:54 | -16.64709 | -164.54506 | 35962 ft | 444 kts | 232° |
| 2026-04-30 21:54 | -16.68602 | -164.59510 | 35967 ft | 444 kts | 232° |
| 2026-04-30 21:55 | -16.72492 | -164.64513 | 35968 ft | 444 kts | 232° |
| 2026-04-30 21:55 | -16.76383 | -164.69520 | 35970 ft | 444 kts | 232° |
| 2026-04-30 21:56 | -16.80246 | -164.74496 | 35973 ft | 444 kts | 232° |
| 2026-04-30 21:56 | -16.84134 | -164.79507 | 35974 ft | 444 kts | 232° |
| 2026-04-30 21:57 | -16.88022 | -164.84523 | 35969 ft | 444 kts | 232° |
| 2026-04-30 21:57 | -16.91908 | -164.89539 | 35967 ft | 444 kts | 232° |
| 2026-04-30 21:58 | -16.95796 | -164.94563 | 35969 ft | 444 kts | 232° |
| 2026-04-30 21:58 | -16.99679 | -164.99582 | 35967 ft | 444 kts | 232° |
| 2026-04-30 21:59 | -17.03659 | -165.04519 | 35962 ft | 444 kts | 230° |
| 2026-04-30 22:00 | -17.09787 | -165.11803 | 35968 ft | 444 kts | 230° |
| 2026-04-30 22:00 | -17.15878 | -165.19100 | 35975 ft | 444 kts | 230° |
| 2026-04-30 22:01 | -17.19930 | -165.23984 | 35975 ft | 444 kts | 230° |
| 2026-04-30 22:01 | -17.23977 | -165.28867 | 35974 ft | 444 kts | 230° |
| 2026-04-30 22:02 | -17.28024 | -165.33755 | 35970 ft | 444 kts | 230° |
| 2026-04-30 22:02 | -17.32069 | -165.38644 | 35963 ft | 444 kts | 230° |
| 2026-04-30 22:03 | -17.36092 | -165.43508 | 35965 ft | 444 kts | 230° |
| 2026-04-30 22:03 | -17.40132 | -165.48397 | 35966 ft | 443 kts | 230° |
| 2026-04-30 22:04 | -17.44167 | -165.53284 | 35966 ft | 443 kts | 230° |
| 2026-04-30 22:05 | -17.50213 | -165.60612 | 35972 ft | 443 kts | 230° |
| 2026-04-30 22:05 | -17.54244 | -165.65502 | 35973 ft | 443 kts | 230° |
| 2026-04-30 22:06 | -17.58273 | -165.70395 | 35969 ft | 443 kts | 230° |
| 2026-04-30 22:06 | -17.63633 | -165.76908 | 35964 ft | 443 kts | 230° |
| 2026-04-30 22:07 | -17.67662 | -165.81808 | 35970 ft | 443 kts | 230° |
| 2026-04-30 22:07 | -17.71686 | -165.86706 | 35972 ft | 443 kts | 230° |
| 2026-04-30 22:08 | -17.75711 | -165.91609 | 35975 ft | 443 kts | 230° |
| 2026-04-30 22:08 | -17.79737 | -165.96516 | 35970 ft | 443 kts | 230° |
| 2026-04-30 22:09 | -17.83758 | -166.01421 | 35972 ft | 443 kts | 230° |
| 2026-04-30 22:09 | -17.87781 | -166.06332 | 35971 ft | 443 kts | 230° |
| 2026-04-30 22:10 | -17.91800 | -166.11243 | 35964 ft | 443 kts | 231° |
| 2026-04-30 22:10 | -17.95820 | -166.16158 | 35978 ft | 443 kts | 231° |
| 2026-04-30 22:11 | -18.01845 | -166.23532 | 35975 ft | 443 kts | 231° |
| 2026-04-30 22:12 | -18.05857 | -166.28447 | 35969 ft | 443 kts | 231° |
| 2026-04-30 22:12 | -18.09862 | -166.33356 | 35969 ft | 442 kts | 231° |
| 2026-04-30 22:13 | -18.13868 | -166.38271 | 35973 ft | 442 kts | 231° |
| 2026-04-30 22:13 | -18.17865 | -166.43180 | 35974 ft | 442 kts | 231° |
| 2026-04-30 22:14 | -18.21866 | -166.48096 | 35973 ft | 442 kts | 231° |
| 2026-04-30 22:14 | -18.25867 | -166.53015 | 35974 ft | 442 kts | 231° |
| 2026-04-30 22:15 | -18.29863 | -166.57934 | 35976 ft | 442 kts | 231° |
| 2026-04-30 22:15 | -18.33860 | -166.62856 | 35968 ft | 442 kts | 231° |
| 2026-04-30 22:16 | -18.37849 | -166.67773 | 35964 ft | 442 kts | 231° |
| 2026-04-30 22:17 | -18.45787 | -166.77570 | 35966 ft | 441 kts | 231° |
| 2026-04-30 22:17 | -18.51779 | -166.84974 | 35963 ft | 441 kts | 231° |
| 2026-04-30 22:18 | -18.57711 | -166.92313 | 35964 ft | 440 kts | 231° |
| 2026-04-30 22:19 | -18.63666 | -166.99689 | 35965 ft | 440 kts | 231° |
| 2026-04-30 22:20 | -18.69619 | -167.07072 | 35968 ft | 440 kts | 232° |
| 2026-04-30 22:20 | -18.75561 | -167.14449 | 35971 ft | 439 kts | 232° |
| 2026-04-30 22:21 | -18.79512 | -167.19359 | 35973 ft | 439 kts | 232° |
| 2026-04-30 22:21 | -18.83456 | -167.24265 | 35974 ft | 438 kts | 232° |
| 2026-04-30 22:22 | -18.87397 | -167.29171 | 35973 ft | 438 kts | 232° |
| 2026-04-30 22:22 | -18.91333 | -167.34074 | 35972 ft | 438 kts | 232° |
| 2026-04-30 22:23 | -18.95266 | -167.38978 | 35975 ft | 438 kts | 232° |
| 2026-04-30 22:23 | -18.99201 | -167.43888 | 35976 ft | 438 kts | 232° |
| 2026-04-30 22:24 | -19.03133 | -167.48798 | 35986 ft | 438 kts | 232° |
| 2026-04-30 22:24 | -19.07067 | -167.53715 | 35979 ft | 438 kts | 232° |
| 2026-04-30 22:25 | -19.10993 | -167.58626 | 35973 ft | 437 kts | 232° |
| 2026-04-30 22:25 | -19.14911 | -167.63529 | 35974 ft | 436 kts | 232° |
| 2026-04-30 22:26 | -19.20771 | -167.70873 | 35980 ft | 435 kts | 232° |
| 2026-04-30 22:27 | -19.24671 | -167.75764 | 35978 ft | 435 kts | 232° |
| 2026-04-30 22:27 | -19.30516 | -167.83104 | 35981 ft | 435 kts | 232° |
| 2026-04-30 22:28 | -19.36359 | -167.90449 | 35981 ft | 435 kts | 232° |
| 2026-04-30 22:29 | -19.44155 | -168.00264 | 35982 ft | 435 kts | 233° |
| 2026-04-30 22:31 | -19.57787 | -168.17464 | 35982 ft | 435 kts | 233° |
| 2026-04-30 22:32 | -19.67506 | -168.29758 | 35981 ft | 435 kts | 233° |
| 2026-04-30 22:33 | -19.77217 | -168.42066 | 35992 ft | 435 kts | 233° |
| 2026-04-30 22:35 | -19.86920 | -168.54392 | 35980 ft | 435 kts | 233° |
| 2026-04-30 22:36 | -19.96606 | -168.66720 | 35984 ft | 434 kts | 233° |
| 2026-04-30 22:37 | -20.04354 | -168.76601 | 35984 ft | 435 kts | 233° |
| 2026-04-30 22:38 | -20.12079 | -168.86470 | 36010 ft | 436 kts | 234° |
| 2026-04-30 22:39 | -20.17892 | -168.93906 | 35989 ft | 436 kts | 234° |
| 2026-04-30 22:40 | -20.29498 | -169.08782 | 35985 ft | 435 kts | 234° |
| 2026-04-30 22:41 | -20.39161 | -169.21198 | 35992 ft | 435 kts | 234° |
| 2026-04-30 22:43 | -20.50732 | -169.36099 | 36000 ft | 435 kts | 234° |
| 2026-04-30 22:44 | -20.58427 | -169.46032 | 36002 ft | 434 kts | 234° |
| 2026-04-30 22:45 | -20.69925 | -169.60905 | 36002 ft | 433 kts | 234° |
| 2026-04-30 22:47 | -20.81413 | -169.75805 | 36003 ft | 433 kts | 234° |
| 2026-04-30 22:48 | -20.89044 | -169.85724 | 36008 ft | 432 kts | 235° |
| 2026-04-30 22:49 | -21.00475 | -170.00612 | 36010 ft | 431 kts | 234° |
| 2026-04-30 22:51 | -21.12439 | -170.14961 | 36018 ft | 432 kts | 233° |
| 2026-04-30 22:52 | -21.18431 | -170.22161 | 36018 ft | 432 kts | 233° |
| 2026-04-30 22:53 | -21.25732 | -170.30970 | 36020 ft | 432 kts | 233° |
| 2026-04-30 22:53 | -21.31716 | -170.38200 | 36023 ft | 432 kts | 233° |
| 2026-04-30 22:55 | -21.41682 | -170.50262 | 36026 ft | 432 kts | 233° |
| 2026-04-30 22:56 | -21.49648 | -170.59923 | 36027 ft | 432 kts | 233° |
| 2026-04-30 22:57 | -21.59608 | -170.72024 | 36034 ft | 431 kts | 234° |
| 2026-04-30 22:58 | -21.67538 | -170.81680 | 36031 ft | 429 kts | 234° |
| 2026-04-30 22:59 | -21.79342 | -170.96087 | 36047 ft | 429 kts | 234° |